<?xml version="1.0" encoding="UTF-8" standalone="no" ?>
<gpx xmlns="http://www.topografix.com/GPX/1/1" xmlns:xsi="http://www.w3.org/2001/XMLSchema-instance" xsi:schemaLocation="http://www.topografix.com/GPX/1/1 http://www.topografix.com/GPX/1/1/gpx.xsd" version="1.1" creator="VisuGPX - https://www.visugpx.com">
  <metadata>
    <name>La Ventre à Terre</name>
    <desc><![CDATA[Voici le parcours de la Ventre à Terre !]]></desc>
  </metadata>
  <trk>
    <name><![CDATA[Move]]></name>
    <trkseg>
      <trkpt lat="46.20896" lon="6.57651">
        <ele>1131</ele>
        <time>2015-08-06T07:40:09.000Z</time>
      </trkpt>
      <trkpt lat="46.20894" lon="6.57655">
        <ele>1131</ele>
        <time>2015-08-06T07:40:12.000Z</time>
      </trkpt>
      <trkpt lat="46.20893" lon="6.5767">
        <ele>1131</ele>
        <time>2015-08-06T07:40:17.000Z</time>
      </trkpt>
      <trkpt lat="46.20885" lon="6.57681">
        <ele>1131</ele>
        <time>2015-08-06T07:40:22.000Z</time>
      </trkpt>
      <trkpt lat="46.20876" lon="6.57692">
        <ele>1131</ele>
        <time>2015-08-06T07:40:27.000Z</time>
      </trkpt>
      <trkpt lat="46.20866" lon="6.57703">
        <ele>1132</ele>
        <time>2015-08-06T07:40:32.000Z</time>
      </trkpt>
      <trkpt lat="46.20857" lon="6.57709">
        <ele>1132</ele>
        <time>2015-08-06T07:40:37.000Z</time>
      </trkpt>
      <trkpt lat="46.20846" lon="6.57707">
        <ele>1136</ele>
        <time>2015-08-06T07:40:43.000Z</time>
      </trkpt>
      <trkpt lat="46.2084" lon="6.57693">
        <ele>1136</ele>
        <time>2015-08-06T07:40:49.000Z</time>
      </trkpt>
      <trkpt lat="46.20834" lon="6.57681">
        <ele>1138.5699968</ele>
        <time>2015-08-06T07:40:55.000Z</time>
      </trkpt>
      <trkpt lat="46.20827" lon="6.57671">
        <ele>1139.5699968</ele>
        <time>2015-08-06T07:41:00.000Z</time>
      </trkpt>
      <trkpt lat="46.20821" lon="6.5766">
        <ele>1140</ele>
        <time>2015-08-06T07:41:05.000Z</time>
      </trkpt>
      <trkpt lat="46.20814" lon="6.57645">
        <ele>1142</ele>
        <time>2015-08-06T07:41:11.000Z</time>
      </trkpt>
      <trkpt lat="46.2081" lon="6.57632">
        <ele>1142</ele>
        <time>2015-08-06T07:41:16.000Z</time>
      </trkpt>
      <trkpt lat="46.20805" lon="6.57619">
        <ele>1145</ele>
        <time>2015-08-06T07:41:21.000Z</time>
      </trkpt>
      <trkpt lat="46.20799" lon="6.57606">
        <ele>1146</ele>
        <time>2015-08-06T07:41:26.000Z</time>
      </trkpt>
      <trkpt lat="46.20788" lon="6.57603">
        <ele>1147</ele>
        <time>2015-08-06T07:41:32.000Z</time>
      </trkpt>
      <trkpt lat="46.2078" lon="6.57614">
        <ele>1147</ele>
        <time>2015-08-06T07:41:38.000Z</time>
      </trkpt>
      <trkpt lat="46.20775" lon="6.57627">
        <ele>1150</ele>
        <time>2015-08-06T07:41:44.000Z</time>
      </trkpt>
      <trkpt lat="46.20769" lon="6.57639">
        <ele>1151.5699968</ele>
        <time>2015-08-06T07:41:50.000Z</time>
      </trkpt>
      <trkpt lat="46.20762" lon="6.5765">
        <ele>1154</ele>
        <time>2015-08-06T07:41:57.000Z</time>
      </trkpt>
      <trkpt lat="46.20753" lon="6.57657">
        <ele>1155</ele>
        <time>2015-08-06T07:42:03.000Z</time>
      </trkpt>
      <trkpt lat="46.20742" lon="6.57663">
        <ele>1155</ele>
        <time>2015-08-06T07:42:09.000Z</time>
      </trkpt>
      <trkpt lat="46.20733" lon="6.5767">
        <ele>1157</ele>
        <time>2015-08-06T07:42:15.000Z</time>
      </trkpt>
      <trkpt lat="46.20724" lon="6.57678">
        <ele>1158.7099904</ele>
        <time>2015-08-06T07:42:20.000Z</time>
      </trkpt>
      <trkpt lat="46.20716" lon="6.57689">
        <ele>1162</ele>
        <time>2015-08-06T07:42:26.000Z</time>
      </trkpt>
      <trkpt lat="46.20711" lon="6.57703">
        <ele>1163</ele>
        <time>2015-08-06T07:42:33.000Z</time>
      </trkpt>
      <trkpt lat="46.20707" lon="6.57718">
        <ele>1165</ele>
        <time>2015-08-06T07:42:39.000Z</time>
      </trkpt>
      <trkpt lat="46.20702" lon="6.57732">
        <ele>1166</ele>
        <time>2015-08-06T07:42:44.000Z</time>
      </trkpt>
      <trkpt lat="46.20698" lon="6.57746">
        <ele>1168</ele>
        <time>2015-08-06T07:42:49.000Z</time>
      </trkpt>
      <trkpt lat="46.20695" lon="6.57763">
        <ele>1168.5699968</ele>
        <time>2015-08-06T07:42:55.000Z</time>
      </trkpt>
      <trkpt lat="46.20691" lon="6.57776">
        <ele>1169.5699968</ele>
        <time>2015-08-06T07:43:00.000Z</time>
      </trkpt>
      <trkpt lat="46.20686" lon="6.57792">
        <ele>1170</ele>
        <time>2015-08-06T07:43:06.000Z</time>
      </trkpt>
      <trkpt lat="46.2068" lon="6.57805">
        <ele>1171</ele>
        <time>2015-08-06T07:43:11.000Z</time>
      </trkpt>
      <trkpt lat="46.20675" lon="6.57821">
        <ele>1171</ele>
        <time>2015-08-06T07:43:17.000Z</time>
      </trkpt>
      <trkpt lat="46.20669" lon="6.57833">
        <ele>1173</ele>
        <time>2015-08-06T07:43:22.000Z</time>
      </trkpt>
      <trkpt lat="46.20662" lon="6.57845">
        <ele>1173</ele>
        <time>2015-08-06T07:43:28.000Z</time>
      </trkpt>
      <trkpt lat="46.20655" lon="6.57856">
        <ele>1175</ele>
        <time>2015-08-06T07:43:33.000Z</time>
      </trkpt>
      <trkpt lat="46.20651" lon="6.57869">
        <ele>1175</ele>
        <time>2015-08-06T07:43:38.000Z</time>
      </trkpt>
      <trkpt lat="46.20644" lon="6.57884">
        <ele>1177</ele>
        <time>2015-08-06T07:43:44.000Z</time>
      </trkpt>
      <trkpt lat="46.20636" lon="6.57896">
        <ele>1177</ele>
        <time>2015-08-06T07:43:49.000Z</time>
      </trkpt>
      <trkpt lat="46.2063" lon="6.57908">
        <ele>1179</ele>
        <time>2015-08-06T07:43:54.000Z</time>
      </trkpt>
      <trkpt lat="46.20625" lon="6.57924">
        <ele>1181.2799872</ele>
        <time>2015-08-06T07:44:00.000Z</time>
      </trkpt>
      <trkpt lat="46.20622" lon="6.57941">
        <ele>1183</ele>
        <time>2015-08-06T07:44:06.000Z</time>
      </trkpt>
      <trkpt lat="46.20619" lon="6.57955">
        <ele>1184</ele>
        <time>2015-08-06T07:44:12.000Z</time>
      </trkpt>
      <trkpt lat="46.20614" lon="6.57969">
        <ele>1184</ele>
        <time>2015-08-06T07:44:18.000Z</time>
      </trkpt>
      <trkpt lat="46.20606" lon="6.57981">
        <ele>1186</ele>
        <time>2015-08-06T07:44:23.000Z</time>
      </trkpt>
      <trkpt lat="46.20599" lon="6.57993">
        <ele>1186</ele>
        <time>2015-08-06T07:44:28.000Z</time>
      </trkpt>
      <trkpt lat="46.20592" lon="6.58005">
        <ele>1189</ele>
        <time>2015-08-06T07:44:34.000Z</time>
      </trkpt>
      <trkpt lat="46.20584" lon="6.58014">
        <ele>1192</ele>
        <time>2015-08-06T07:44:39.000Z</time>
      </trkpt>
      <trkpt lat="46.20574" lon="6.58025">
        <ele>1192</ele>
        <time>2015-08-06T07:44:44.000Z</time>
      </trkpt>
      <trkpt lat="46.20566" lon="6.58032">
        <ele>1193</ele>
        <time>2015-08-06T07:44:48.000Z</time>
      </trkpt>
      <trkpt lat="46.20556" lon="6.5804">
        <ele>1194</ele>
        <time>2015-08-06T07:44:53.000Z</time>
      </trkpt>
      <trkpt lat="46.20548" lon="6.58051">
        <ele>1194</ele>
        <time>2015-08-06T07:44:59.000Z</time>
      </trkpt>
      <trkpt lat="46.20539" lon="6.5806">
        <ele>1196</ele>
        <time>2015-08-06T07:45:06.000Z</time>
      </trkpt>
      <trkpt lat="46.2053" lon="6.58069">
        <ele>1198</ele>
        <time>2015-08-06T07:45:12.000Z</time>
      </trkpt>
      <trkpt lat="46.20519" lon="6.58074">
        <ele>1198</ele>
        <time>2015-08-06T07:45:17.000Z</time>
      </trkpt>
      <trkpt lat="46.20507" lon="6.58079">
        <ele>1199</ele>
        <time>2015-08-06T07:45:22.000Z</time>
      </trkpt>
      <trkpt lat="46.20496" lon="6.58085">
        <ele>1199</ele>
        <time>2015-08-06T07:45:28.000Z</time>
      </trkpt>
      <trkpt lat="46.20486" lon="6.58088">
        <ele>1202</ele>
        <time>2015-08-06T07:45:33.000Z</time>
      </trkpt>
      <trkpt lat="46.20477" lon="6.5809">
        <ele>1203</ele>
        <time>2015-08-06T07:45:38.000Z</time>
      </trkpt>
      <trkpt lat="46.20468" lon="6.58098">
        <ele>1204</ele>
        <time>2015-08-06T07:45:46.000Z</time>
      </trkpt>
      <trkpt lat="46.20458" lon="6.58104">
        <ele>1206</ele>
        <time>2015-08-06T07:45:53.000Z</time>
      </trkpt>
      <trkpt lat="46.20446" lon="6.58105">
        <ele>1206</ele>
        <time>2015-08-06T07:45:58.000Z</time>
      </trkpt>
      <trkpt lat="46.20435" lon="6.58106">
        <ele>1208</ele>
        <time>2015-08-06T07:46:04.000Z</time>
      </trkpt>
      <trkpt lat="46.20424" lon="6.58108">
        <ele>1208.5699968</ele>
        <time>2015-08-06T07:46:10.000Z</time>
      </trkpt>
      <trkpt lat="46.20413" lon="6.58112">
        <ele>1209</ele>
        <time>2015-08-06T07:46:16.000Z</time>
      </trkpt>
      <trkpt lat="46.20403" lon="6.58115">
        <ele>1211</ele>
        <time>2015-08-06T07:46:21.000Z</time>
      </trkpt>
      <trkpt lat="46.2039" lon="6.5812">
        <ele>1211</ele>
        <time>2015-08-06T07:46:26.000Z</time>
      </trkpt>
      <trkpt lat="46.2038" lon="6.58127">
        <ele>1212.1399936</ele>
        <time>2015-08-06T07:46:30.000Z</time>
      </trkpt>
      <trkpt lat="46.20379" lon="6.58143">
        <ele>1213</ele>
        <time>2015-08-06T07:46:35.000Z</time>
      </trkpt>
      <trkpt lat="46.20384" lon="6.58156">
        <ele>1213</ele>
        <time>2015-08-06T07:46:38.000Z</time>
      </trkpt>
      <trkpt lat="46.20386" lon="6.58171">
        <ele>1215</ele>
        <time>2015-08-06T07:46:42.000Z</time>
      </trkpt>
      <trkpt lat="46.20383" lon="6.58187">
        <ele>1216</ele>
        <time>2015-08-06T07:46:48.000Z</time>
      </trkpt>
      <trkpt lat="46.20374" lon="6.58192">
        <ele>1218</ele>
        <time>2015-08-06T07:46:53.000Z</time>
      </trkpt>
      <trkpt lat="46.20369" lon="6.58179">
        <ele>1221</ele>
        <time>2015-08-06T07:47:01.000Z</time>
      </trkpt>
      <trkpt lat="46.20361" lon="6.58169">
        <ele>1222</ele>
        <time>2015-08-06T07:47:09.000Z</time>
      </trkpt>
      <trkpt lat="46.20351" lon="6.58165">
        <ele>1224</ele>
        <time>2015-08-06T07:47:15.000Z</time>
      </trkpt>
      <trkpt lat="46.2034" lon="6.58172">
        <ele>1225</ele>
        <time>2015-08-06T07:47:21.000Z</time>
      </trkpt>
      <trkpt lat="46.20333" lon="6.58184">
        <ele>1225</ele>
        <time>2015-08-06T07:47:28.000Z</time>
      </trkpt>
      <trkpt lat="46.20323" lon="6.5819">
        <ele>1227</ele>
        <time>2015-08-06T07:47:32.000Z</time>
      </trkpt>
      <trkpt lat="46.20314" lon="6.582">
        <ele>1227</ele>
        <time>2015-08-06T07:47:37.000Z</time>
      </trkpt>
      <trkpt lat="46.20311" lon="6.58216">
        <ele>1230</ele>
        <time>2015-08-06T07:47:44.000Z</time>
      </trkpt>
      <trkpt lat="46.20315" lon="6.5823">
        <ele>1231</ele>
        <time>2015-08-06T07:47:49.000Z</time>
      </trkpt>
      <trkpt lat="46.20321" lon="6.58245">
        <ele>1232</ele>
        <time>2015-08-06T07:47:54.000Z</time>
      </trkpt>
      <trkpt lat="46.20326" lon="6.5826">
        <ele>1233</ele>
        <time>2015-08-06T07:47:59.000Z</time>
      </trkpt>
      <trkpt lat="46.20334" lon="6.58273">
        <ele>1235</ele>
        <time>2015-08-06T07:48:04.000Z</time>
      </trkpt>
      <trkpt lat="46.20342" lon="6.58284">
        <ele>1236</ele>
        <time>2015-08-06T07:48:09.000Z</time>
      </trkpt>
      <trkpt lat="46.20351" lon="6.58291">
        <ele>1239.1399936</ele>
        <time>2015-08-06T07:48:15.000Z</time>
      </trkpt>
      <trkpt lat="46.20361" lon="6.583">
        <ele>1242</ele>
        <time>2015-08-06T07:48:21.000Z</time>
      </trkpt>
      <trkpt lat="46.20372" lon="6.58308">
        <ele>1243</ele>
        <time>2015-08-06T07:48:26.000Z</time>
      </trkpt>
      <trkpt lat="46.20382" lon="6.58316">
        <ele>1243.5699968</ele>
        <time>2015-08-06T07:48:30.000Z</time>
      </trkpt>
      <trkpt lat="46.20392" lon="6.58322">
        <ele>1244</ele>
        <time>2015-08-06T07:48:36.000Z</time>
      </trkpt>
      <trkpt lat="46.20397" lon="6.58337">
        <ele>1246</ele>
        <time>2015-08-06T07:48:42.000Z</time>
      </trkpt>
      <trkpt lat="46.20391" lon="6.58351">
        <ele>1246</ele>
        <time>2015-08-06T07:48:48.000Z</time>
      </trkpt>
      <trkpt lat="46.20381" lon="6.58355">
        <ele>1247</ele>
        <time>2015-08-06T07:48:52.000Z</time>
      </trkpt>
      <trkpt lat="46.20372" lon="6.58365">
        <ele>1247</ele>
        <time>2015-08-06T07:48:58.000Z</time>
      </trkpt>
      <trkpt lat="46.20361" lon="6.58369">
        <ele>1249</ele>
        <time>2015-08-06T07:49:03.000Z</time>
      </trkpt>
      <trkpt lat="46.20349" lon="6.58375">
        <ele>1249</ele>
        <time>2015-08-06T07:49:07.000Z</time>
      </trkpt>
      <trkpt lat="46.2034" lon="6.58379">
        <ele>1249</ele>
        <time>2015-08-06T07:49:10.000Z</time>
      </trkpt>
      <trkpt lat="46.20328" lon="6.58386">
        <ele>1249</ele>
        <time>2015-08-06T07:49:14.000Z</time>
      </trkpt>
      <trkpt lat="46.20318" lon="6.58394">
        <ele>1249</ele>
        <time>2015-08-06T07:49:18.000Z</time>
      </trkpt>
      <trkpt lat="46.20307" lon="6.58399">
        <ele>1250</ele>
        <time>2015-08-06T07:49:22.000Z</time>
      </trkpt>
      <trkpt lat="46.20298" lon="6.58405">
        <ele>1250</ele>
        <time>2015-08-06T07:49:26.000Z</time>
      </trkpt>
      <trkpt lat="46.20288" lon="6.58409">
        <ele>1250</ele>
        <time>2015-08-06T07:49:30.000Z</time>
      </trkpt>
      <trkpt lat="46.20277" lon="6.58415">
        <ele>1250</ele>
        <time>2015-08-06T07:49:34.000Z</time>
      </trkpt>
      <trkpt lat="46.20267" lon="6.58419">
        <ele>1250</ele>
        <time>2015-08-06T07:49:37.000Z</time>
      </trkpt>
      <trkpt lat="46.20257" lon="6.58427">
        <ele>1249</ele>
        <time>2015-08-06T07:49:41.000Z</time>
      </trkpt>
      <trkpt lat="46.20248" lon="6.5843">
        <ele>1249</ele>
        <time>2015-08-06T07:49:45.000Z</time>
      </trkpt>
      <trkpt lat="46.20237" lon="6.58434">
        <ele>1249</ele>
        <time>2015-08-06T07:49:49.000Z</time>
      </trkpt>
      <trkpt lat="46.20228" lon="6.58442">
        <ele>1250</ele>
        <time>2015-08-06T07:49:54.000Z</time>
      </trkpt>
      <trkpt lat="46.20217" lon="6.58449">
        <ele>1250</ele>
        <time>2015-08-06T07:49:58.000Z</time>
      </trkpt>
      <trkpt lat="46.20207" lon="6.58457">
        <ele>1251</ele>
        <time>2015-08-06T07:50:02.000Z</time>
      </trkpt>
      <trkpt lat="46.20199" lon="6.58466">
        <ele>1251</ele>
        <time>2015-08-06T07:50:06.000Z</time>
      </trkpt>
      <trkpt lat="46.20192" lon="6.58478">
        <ele>1252.1399936</ele>
        <time>2015-08-06T07:50:10.000Z</time>
      </trkpt>
      <trkpt lat="46.20185" lon="6.58489">
        <ele>1253</ele>
        <time>2015-08-06T07:50:14.000Z</time>
      </trkpt>
      <trkpt lat="46.2018" lon="6.58503">
        <ele>1253</ele>
        <time>2015-08-06T07:50:19.000Z</time>
      </trkpt>
      <trkpt lat="46.20172" lon="6.58514">
        <ele>1256</ele>
        <time>2015-08-06T07:50:24.000Z</time>
      </trkpt>
      <trkpt lat="46.20164" lon="6.58525">
        <ele>1256</ele>
        <time>2015-08-06T07:50:29.000Z</time>
      </trkpt>
      <trkpt lat="46.20155" lon="6.58533">
        <ele>1255</ele>
        <time>2015-08-06T07:50:33.000Z</time>
      </trkpt>
      <trkpt lat="46.20145" lon="6.58537">
        <ele>1255</ele>
        <time>2015-08-06T07:50:36.000Z</time>
      </trkpt>
      <trkpt lat="46.20136" lon="6.58543">
        <ele>1254.4300032</ele>
        <time>2015-08-06T07:50:40.000Z</time>
      </trkpt>
      <trkpt lat="46.20126" lon="6.58548">
        <ele>1254</ele>
        <time>2015-08-06T07:50:44.000Z</time>
      </trkpt>
      <trkpt lat="46.20116" lon="6.58554">
        <ele>1254</ele>
        <time>2015-08-06T07:50:47.000Z</time>
      </trkpt>
      <trkpt lat="46.20106" lon="6.58563">
        <ele>1254</ele>
        <time>2015-08-06T07:50:51.000Z</time>
      </trkpt>
      <trkpt lat="46.20094" lon="6.58571">
        <ele>1254</ele>
        <time>2015-08-06T07:50:55.000Z</time>
      </trkpt>
      <trkpt lat="46.20085" lon="6.58576">
        <ele>1254</ele>
        <time>2015-08-06T07:50:58.000Z</time>
      </trkpt>
      <trkpt lat="46.20073" lon="6.58579">
        <ele>1255</ele>
        <time>2015-08-06T07:51:02.000Z</time>
      </trkpt>
      <trkpt lat="46.20062" lon="6.58585">
        <ele>1255</ele>
        <time>2015-08-06T07:51:06.000Z</time>
      </trkpt>
      <trkpt lat="46.20051" lon="6.58589">
        <ele>1253.8600064</ele>
        <time>2015-08-06T07:51:10.000Z</time>
      </trkpt>
      <trkpt lat="46.20038" lon="6.58591">
        <ele>1253</ele>
        <time>2015-08-06T07:51:14.000Z</time>
      </trkpt>
      <trkpt lat="46.20025" lon="6.58595">
        <ele>1253</ele>
        <time>2015-08-06T07:51:18.000Z</time>
      </trkpt>
      <trkpt lat="46.20015" lon="6.58598">
        <ele>1252</ele>
        <time>2015-08-06T07:51:22.000Z</time>
      </trkpt>
      <trkpt lat="46.20004" lon="6.58605">
        <ele>1252</ele>
        <time>2015-08-06T07:51:27.000Z</time>
      </trkpt>
      <trkpt lat="46.19993" lon="6.58613">
        <ele>1253</ele>
        <time>2015-08-06T07:51:31.000Z</time>
      </trkpt>
      <trkpt lat="46.19983" lon="6.58622">
        <ele>1253</ele>
        <time>2015-08-06T07:51:35.000Z</time>
      </trkpt>
      <trkpt lat="46.19976" lon="6.58634">
        <ele>1253</ele>
        <time>2015-08-06T07:51:39.000Z</time>
      </trkpt>
      <trkpt lat="46.19968" lon="6.58647">
        <ele>1255</ele>
        <time>2015-08-06T07:51:43.000Z</time>
      </trkpt>
      <trkpt lat="46.19961" lon="6.58661">
        <ele>1255</ele>
        <time>2015-08-06T07:51:47.000Z</time>
      </trkpt>
      <trkpt lat="46.19956" lon="6.58673">
        <ele>1255.5699968</ele>
        <time>2015-08-06T07:51:50.000Z</time>
      </trkpt>
      <trkpt lat="46.19952" lon="6.58686">
        <ele>1256</ele>
        <time>2015-08-06T07:51:53.000Z</time>
      </trkpt>
      <trkpt lat="46.1995" lon="6.58703">
        <ele>1256</ele>
        <time>2015-08-06T07:51:57.000Z</time>
      </trkpt>
      <trkpt lat="46.19947" lon="6.58718">
        <ele>1258</ele>
        <time>2015-08-06T07:52:01.000Z</time>
      </trkpt>
      <trkpt lat="46.19945" lon="6.58734">
        <ele>1258</ele>
        <time>2015-08-06T07:52:05.000Z</time>
      </trkpt>
      <trkpt lat="46.19943" lon="6.58748">
        <ele>1258</ele>
        <time>2015-08-06T07:52:09.000Z</time>
      </trkpt>
      <trkpt lat="46.19939" lon="6.58762">
        <ele>1259</ele>
        <time>2015-08-06T07:52:13.000Z</time>
      </trkpt>
      <trkpt lat="46.19934" lon="6.58776">
        <ele>1259</ele>
        <time>2015-08-06T07:52:17.000Z</time>
      </trkpt>
      <trkpt lat="46.19928" lon="6.58791">
        <ele>1261</ele>
        <time>2015-08-06T07:52:22.000Z</time>
      </trkpt>
      <trkpt lat="46.19921" lon="6.58806">
        <ele>1261</ele>
        <time>2015-08-06T07:52:27.000Z</time>
      </trkpt>
      <trkpt lat="46.19914" lon="6.58817">
        <ele>1262</ele>
        <time>2015-08-06T07:52:31.000Z</time>
      </trkpt>
      <trkpt lat="46.19908" lon="6.58829">
        <ele>1262</ele>
        <time>2015-08-06T07:52:35.000Z</time>
      </trkpt>
      <trkpt lat="46.19902" lon="6.58841">
        <ele>1262</ele>
        <time>2015-08-06T07:52:39.000Z</time>
      </trkpt>
      <trkpt lat="46.19897" lon="6.58856">
        <ele>1263</ele>
        <time>2015-08-06T07:52:44.000Z</time>
      </trkpt>
      <trkpt lat="46.19893" lon="6.58871">
        <ele>1263</ele>
        <time>2015-08-06T07:52:49.000Z</time>
      </trkpt>
      <trkpt lat="46.19887" lon="6.58887">
        <ele>1265</ele>
        <time>2015-08-06T07:52:54.000Z</time>
      </trkpt>
      <trkpt lat="46.19881" lon="6.58902">
        <ele>1265</ele>
        <time>2015-08-06T07:52:59.000Z</time>
      </trkpt>
      <trkpt lat="46.19874" lon="6.58917">
        <ele>1267</ele>
        <time>2015-08-06T07:53:04.000Z</time>
      </trkpt>
      <trkpt lat="46.19869" lon="6.58929">
        <ele>1267</ele>
        <time>2015-08-06T07:53:08.000Z</time>
      </trkpt>
      <trkpt lat="46.19862" lon="6.58941">
        <ele>1265</ele>
        <time>2015-08-06T07:53:12.000Z</time>
      </trkpt>
      <trkpt lat="46.19856" lon="6.58955">
        <ele>1265</ele>
        <time>2015-08-06T07:53:17.000Z</time>
      </trkpt>
      <trkpt lat="46.19849" lon="6.58965">
        <ele>1266</ele>
        <time>2015-08-06T07:53:21.000Z</time>
      </trkpt>
      <trkpt lat="46.19842" lon="6.58979">
        <ele>1266</ele>
        <time>2015-08-06T07:53:25.000Z</time>
      </trkpt>
      <trkpt lat="46.19834" lon="6.58993">
        <ele>1266</ele>
        <time>2015-08-06T07:53:29.000Z</time>
      </trkpt>
      <trkpt lat="46.19826" lon="6.59004">
        <ele>1266</ele>
        <time>2015-08-06T07:53:32.000Z</time>
      </trkpt>
      <trkpt lat="46.19819" lon="6.59014">
        <ele>1266</ele>
        <time>2015-08-06T07:53:35.000Z</time>
      </trkpt>
      <trkpt lat="46.19813" lon="6.59028">
        <ele>1266</ele>
        <time>2015-08-06T07:53:39.000Z</time>
      </trkpt>
      <trkpt lat="46.19812" lon="6.59044">
        <ele>1263</ele>
        <time>2015-08-06T07:53:43.000Z</time>
      </trkpt>
      <trkpt lat="46.19823" lon="6.59051">
        <ele>1263</ele>
        <time>2015-08-06T07:53:48.000Z</time>
      </trkpt>
      <trkpt lat="46.19833" lon="6.59052">
        <ele>1263</ele>
        <time>2015-08-06T07:53:52.000Z</time>
      </trkpt>
      <trkpt lat="46.19844" lon="6.5905">
        <ele>1263</ele>
        <time>2015-08-06T07:53:57.000Z</time>
      </trkpt>
      <trkpt lat="46.19857" lon="6.59052">
        <ele>1266</ele>
        <time>2015-08-06T07:54:01.000Z</time>
      </trkpt>
      <trkpt lat="46.19868" lon="6.59058">
        <ele>1268</ele>
        <time>2015-08-06T07:54:06.000Z</time>
      </trkpt>
      <trkpt lat="46.19877" lon="6.59063">
        <ele>1268.5643550554</ele>
        <time>2015-08-06T07:54:10.000Z</time>
      </trkpt>
      <trkpt lat="46.19888" lon="6.59072">
        <ele>1270.1399936</ele>
        <time>2015-08-06T07:54:15.000Z</time>
      </trkpt>
      <trkpt lat="46.19899" lon="6.59079">
        <ele>1271.5699968</ele>
        <time>2015-08-06T07:54:20.000Z</time>
      </trkpt>
      <trkpt lat="46.19909" lon="6.59087">
        <ele>1272.5699968</ele>
        <time>2015-08-06T07:54:25.000Z</time>
      </trkpt>
      <trkpt lat="46.19917" lon="6.59098">
        <ele>1274.1399936</ele>
        <time>2015-08-06T07:54:30.000Z</time>
      </trkpt>
      <trkpt lat="46.19925" lon="6.59112">
        <ele>1275.5699968</ele>
        <time>2015-08-06T07:54:35.000Z</time>
      </trkpt>
      <trkpt lat="46.19932" lon="6.59125">
        <ele>1277</ele>
        <time>2015-08-06T07:54:41.000Z</time>
      </trkpt>
      <trkpt lat="46.1994" lon="6.59135">
        <ele>1277</ele>
        <time>2015-08-06T07:54:45.000Z</time>
      </trkpt>
      <trkpt lat="46.19947" lon="6.59146">
        <ele>1278.1399936</ele>
        <time>2015-08-06T07:54:50.000Z</time>
      </trkpt>
      <trkpt lat="46.19955" lon="6.59155">
        <ele>1280.1399936</ele>
        <time>2015-08-06T07:54:55.000Z</time>
      </trkpt>
      <trkpt lat="46.19964" lon="6.59163">
        <ele>1281</ele>
        <time>2015-08-06T07:54:59.000Z</time>
      </trkpt>
      <trkpt lat="46.19974" lon="6.59173">
        <ele>1282</ele>
        <time>2015-08-06T07:55:04.000Z</time>
      </trkpt>
      <trkpt lat="46.19979" lon="6.59185">
        <ele>1284</ele>
        <time>2015-08-06T07:55:09.000Z</time>
      </trkpt>
      <trkpt lat="46.19973" lon="6.59199">
        <ele>1286.1399936</ele>
        <time>2015-08-06T07:55:15.000Z</time>
      </trkpt>
      <trkpt lat="46.19967" lon="6.59212">
        <ele>1289</ele>
        <time>2015-08-06T07:55:22.000Z</time>
      </trkpt>
      <trkpt lat="46.19958" lon="6.59223">
        <ele>1291</ele>
        <time>2015-08-06T07:55:28.000Z</time>
      </trkpt>
      <trkpt lat="46.19948" lon="6.59231">
        <ele>1292</ele>
        <time>2015-08-06T07:55:33.000Z</time>
      </trkpt>
      <trkpt lat="46.1994" lon="6.5924">
        <ele>1293</ele>
        <time>2015-08-06T07:55:38.000Z</time>
      </trkpt>
      <trkpt lat="46.1993" lon="6.59249">
        <ele>1293</ele>
        <time>2015-08-06T07:55:43.000Z</time>
      </trkpt>
      <trkpt lat="46.19925" lon="6.59263">
        <ele>1293</ele>
        <time>2015-08-06T07:55:49.000Z</time>
      </trkpt>
      <trkpt lat="46.19918" lon="6.59274">
        <ele>1297</ele>
        <time>2015-08-06T07:55:54.000Z</time>
      </trkpt>
      <trkpt lat="46.19913" lon="6.59287">
        <ele>1303</ele>
        <time>2015-08-06T07:56:01.000Z</time>
      </trkpt>
      <trkpt lat="46.19906" lon="6.59299">
        <ele>1304</ele>
        <time>2015-08-06T07:56:09.000Z</time>
      </trkpt>
      <trkpt lat="46.199" lon="6.59312">
        <ele>1305</ele>
        <time>2015-08-06T07:56:16.000Z</time>
      </trkpt>
      <trkpt lat="46.19894" lon="6.59324">
        <ele>1307</ele>
        <time>2015-08-06T07:56:23.000Z</time>
      </trkpt>
      <trkpt lat="46.19894" lon="6.59338">
        <ele>1310</ele>
        <time>2015-08-06T07:56:32.000Z</time>
      </trkpt>
      <trkpt lat="46.19898" lon="6.59352">
        <ele>1313</ele>
        <time>2015-08-06T07:56:39.000Z</time>
      </trkpt>
      <trkpt lat="46.19892" lon="6.59365">
        <ele>1314.5699968</ele>
        <time>2015-08-06T07:56:45.000Z</time>
      </trkpt>
      <trkpt lat="46.1989" lon="6.5938">
        <ele>1316</ele>
        <time>2015-08-06T07:56:53.000Z</time>
      </trkpt>
      <trkpt lat="46.19888" lon="6.594">
        <ele>1319</ele>
        <time>2015-08-06T07:57:02.000Z</time>
      </trkpt>
      <trkpt lat="46.19885" lon="6.59415">
        <ele>1319</ele>
        <time>2015-08-06T07:57:08.000Z</time>
      </trkpt>
      <trkpt lat="46.19876" lon="6.59425">
        <ele>1321</ele>
        <time>2015-08-06T07:57:13.000Z</time>
      </trkpt>
      <trkpt lat="46.19868" lon="6.59438">
        <ele>1321</ele>
        <time>2015-08-06T07:57:18.000Z</time>
      </trkpt>
      <trkpt lat="46.19857" lon="6.59452">
        <ele>1322</ele>
        <time>2015-08-06T07:57:25.000Z</time>
      </trkpt>
      <trkpt lat="46.19847" lon="6.59463">
        <ele>1322</ele>
        <time>2015-08-06T07:57:29.000Z</time>
      </trkpt>
      <trkpt lat="46.19843" lon="6.59478">
        <ele>1322</ele>
        <time>2015-08-06T07:57:36.000Z</time>
      </trkpt>
      <trkpt lat="46.19845" lon="6.59493">
        <ele>1323</ele>
        <time>2015-08-06T07:57:45.000Z</time>
      </trkpt>
      <trkpt lat="46.1984" lon="6.59506">
        <ele>1329</ele>
        <time>2015-08-06T07:57:57.000Z</time>
      </trkpt>
      <trkpt lat="46.19835" lon="6.5952">
        <ele>1329</ele>
        <time>2015-08-06T07:58:03.000Z</time>
      </trkpt>
      <trkpt lat="46.19836" lon="6.59536">
        <ele>1333</ele>
        <time>2015-08-06T07:58:11.000Z</time>
      </trkpt>
      <trkpt lat="46.19838" lon="6.59551">
        <ele>1334</ele>
        <time>2015-08-06T07:58:19.000Z</time>
      </trkpt>
      <trkpt lat="46.1984" lon="6.59565">
        <ele>1335</ele>
        <time>2015-08-06T07:58:28.000Z</time>
      </trkpt>
      <trkpt lat="46.19843" lon="6.59579">
        <ele>1340</ele>
        <time>2015-08-06T07:58:38.000Z</time>
      </trkpt>
      <trkpt lat="46.1984" lon="6.59594">
        <ele>1345.1399936</ele>
        <time>2015-08-06T07:58:50.000Z</time>
      </trkpt>
      <trkpt lat="46.19836" lon="6.59608">
        <ele>1348</ele>
        <time>2015-08-06T07:58:57.000Z</time>
      </trkpt>
      <trkpt lat="46.19838" lon="6.59623">
        <ele>1349</ele>
        <time>2015-08-06T07:59:04.000Z</time>
      </trkpt>
      <trkpt lat="46.19842" lon="6.59639">
        <ele>1351.56122409</ele>
        <time>2015-08-06T07:59:10.000Z</time>
      </trkpt>
      <trkpt lat="46.19843" lon="6.59654">
        <ele>1353</ele>
        <time>2015-08-06T07:59:17.000Z</time>
      </trkpt>
      <trkpt lat="46.1984" lon="6.59668">
        <ele>1356</ele>
        <time>2015-08-06T07:59:26.000Z</time>
      </trkpt>
      <trkpt lat="46.1983" lon="6.59668">
        <ele>1356</ele>
        <time>2015-08-06T07:59:33.000Z</time>
      </trkpt>
      <trkpt lat="46.1982" lon="6.59664">
        <ele>1356</ele>
        <time>2015-08-06T07:59:37.000Z</time>
      </trkpt>
      <trkpt lat="46.19809" lon="6.59664">
        <ele>1354</ele>
        <time>2015-08-06T07:59:42.000Z</time>
      </trkpt>
      <trkpt lat="46.19799" lon="6.59663">
        <ele>1354</ele>
        <time>2015-08-06T07:59:48.000Z</time>
      </trkpt>
      <trkpt lat="46.19791" lon="6.59653">
        <ele>1354</ele>
        <time>2015-08-06T07:59:55.000Z</time>
      </trkpt>
      <trkpt lat="46.19785" lon="6.59641">
        <ele>1354</ele>
        <time>2015-08-06T08:00:01.000Z</time>
      </trkpt>
      <trkpt lat="46.19775" lon="6.59629">
        <ele>1354</ele>
        <time>2015-08-06T08:00:06.000Z</time>
      </trkpt>
      <trkpt lat="46.19767" lon="6.5962">
        <ele>1354</ele>
        <time>2015-08-06T08:00:12.000Z</time>
      </trkpt>
      <trkpt lat="46.19759" lon="6.59609">
        <ele>1354</ele>
        <time>2015-08-06T08:00:18.000Z</time>
      </trkpt>
      <trkpt lat="46.19753" lon="6.59596">
        <ele>1353</ele>
        <time>2015-08-06T08:00:24.000Z</time>
      </trkpt>
      <trkpt lat="46.19745" lon="6.59588">
        <ele>1353</ele>
        <time>2015-08-06T08:00:28.000Z</time>
      </trkpt>
      <trkpt lat="46.19735" lon="6.5958">
        <ele>1353</ele>
        <time>2015-08-06T08:00:33.000Z</time>
      </trkpt>
      <trkpt lat="46.19725" lon="6.59575">
        <ele>1353</ele>
        <time>2015-08-06T08:00:38.000Z</time>
      </trkpt>
      <trkpt lat="46.19715" lon="6.59568">
        <ele>1352</ele>
        <time>2015-08-06T08:00:46.000Z</time>
      </trkpt>
      <trkpt lat="46.19704" lon="6.59563">
        <ele>1350</ele>
        <time>2015-08-06T08:00:54.000Z</time>
      </trkpt>
      <trkpt lat="46.19693" lon="6.59558">
        <ele>1350</ele>
        <time>2015-08-06T08:00:58.000Z</time>
      </trkpt>
      <trkpt lat="46.19682" lon="6.59555">
        <ele>1342</ele>
        <time>2015-08-06T08:01:01.000Z</time>
      </trkpt>
      <trkpt lat="46.19672" lon="6.59545">
        <ele>1342.5699968</ele>
        <time>2015-08-06T08:01:06.000Z</time>
      </trkpt>
      <trkpt lat="46.19664" lon="6.59538">
        <ele>1344</ele>
        <time>2015-08-06T08:01:12.000Z</time>
      </trkpt>
      <trkpt lat="46.19659" lon="6.59525">
        <ele>1344</ele>
        <time>2015-08-06T08:01:18.000Z</time>
      </trkpt>
      <trkpt lat="46.19657" lon="6.5951">
        <ele>1342</ele>
        <time>2015-08-06T08:01:25.000Z</time>
      </trkpt>
      <trkpt lat="46.19652" lon="6.59498">
        <ele>1342</ele>
        <time>2015-08-06T08:01:29.000Z</time>
      </trkpt>
      <trkpt lat="46.19647" lon="6.59485">
        <ele>1340</ele>
        <time>2015-08-06T08:01:34.000Z</time>
      </trkpt>
      <trkpt lat="46.19639" lon="6.59469">
        <ele>1340</ele>
        <time>2015-08-06T08:01:39.000Z</time>
      </trkpt>
      <trkpt lat="46.19633" lon="6.59455">
        <ele>1340</ele>
        <time>2015-08-06T08:01:43.000Z</time>
      </trkpt>
      <trkpt lat="46.19631" lon="6.59439">
        <ele>1340</ele>
        <time>2015-08-06T08:01:47.000Z</time>
      </trkpt>
      <trkpt lat="46.19627" lon="6.59425">
        <ele>1340</ele>
        <time>2015-08-06T08:01:51.000Z</time>
      </trkpt>
      <trkpt lat="46.19624" lon="6.5941">
        <ele>1340</ele>
        <time>2015-08-06T08:01:57.000Z</time>
      </trkpt>
      <trkpt lat="46.1962" lon="6.59395">
        <ele>1340</ele>
        <time>2015-08-06T08:02:05.000Z</time>
      </trkpt>
      <trkpt lat="46.19614" lon="6.59381">
        <ele>1342</ele>
        <time>2015-08-06T08:02:11.000Z</time>
      </trkpt>
      <trkpt lat="46.19609" lon="6.59366">
        <ele>1342</ele>
        <time>2015-08-06T08:02:17.000Z</time>
      </trkpt>
      <trkpt lat="46.19604" lon="6.59351">
        <ele>1343</ele>
        <time>2015-08-06T08:02:23.000Z</time>
      </trkpt>
      <trkpt lat="46.19602" lon="6.59336">
        <ele>1343</ele>
        <time>2015-08-06T08:02:29.000Z</time>
      </trkpt>
      <trkpt lat="46.19597" lon="6.59323">
        <ele>1345</ele>
        <time>2015-08-06T08:02:35.000Z</time>
      </trkpt>
      <trkpt lat="46.19591" lon="6.59311">
        <ele>1346.7099904</ele>
        <time>2015-08-06T08:02:40.000Z</time>
      </trkpt>
      <trkpt lat="46.19587" lon="6.59298">
        <ele>1349.1399936</ele>
        <time>2015-08-06T08:02:45.000Z</time>
      </trkpt>
      <trkpt lat="46.19583" lon="6.59282">
        <ele>1351.1399936</ele>
        <time>2015-08-06T08:02:50.000Z</time>
      </trkpt>
      <trkpt lat="46.19581" lon="6.59264">
        <ele>1352.5699968</ele>
        <time>2015-08-06T08:02:55.000Z</time>
      </trkpt>
      <trkpt lat="46.19585" lon="6.59249">
        <ele>1353</ele>
        <time>2015-08-06T08:02:59.000Z</time>
      </trkpt>
      <trkpt lat="46.19586" lon="6.59232">
        <ele>1354</ele>
        <time>2015-08-06T08:03:04.000Z</time>
      </trkpt>
      <trkpt lat="46.19588" lon="6.59216">
        <ele>1354</ele>
        <time>2015-08-06T08:03:09.000Z</time>
      </trkpt>
      <trkpt lat="46.19593" lon="6.59203">
        <ele>1355</ele>
        <time>2015-08-06T08:03:13.000Z</time>
      </trkpt>
      <trkpt lat="46.19594" lon="6.59189">
        <ele>1355</ele>
        <time>2015-08-06T08:03:18.000Z</time>
      </trkpt>
      <trkpt lat="46.19596" lon="6.59174">
        <ele>1356</ele>
        <time>2015-08-06T08:03:23.000Z</time>
      </trkpt>
      <trkpt lat="46.19599" lon="6.59159">
        <ele>1356</ele>
        <time>2015-08-06T08:03:28.000Z</time>
      </trkpt>
      <trkpt lat="46.196" lon="6.59143">
        <ele>1358</ele>
        <time>2015-08-06T08:03:33.000Z</time>
      </trkpt>
      <trkpt lat="46.19599" lon="6.59128">
        <ele>1358</ele>
        <time>2015-08-06T08:03:38.000Z</time>
      </trkpt>
      <trkpt lat="46.19598" lon="6.59112">
        <ele>1360</ele>
        <time>2015-08-06T08:03:44.000Z</time>
      </trkpt>
      <trkpt lat="46.19597" lon="6.59096">
        <ele>1360</ele>
        <time>2015-08-06T08:03:49.000Z</time>
      </trkpt>
      <trkpt lat="46.19598" lon="6.59081">
        <ele>1363</ele>
        <time>2015-08-06T08:03:54.000Z</time>
      </trkpt>
      <trkpt lat="46.19594" lon="6.59066">
        <ele>1365</ele>
        <time>2015-08-06T08:03:59.000Z</time>
      </trkpt>
      <trkpt lat="46.19594" lon="6.5905">
        <ele>1365</ele>
        <time>2015-08-06T08:04:04.000Z</time>
      </trkpt>
      <trkpt lat="46.19598" lon="6.59036">
        <ele>1365</ele>
        <time>2015-08-06T08:04:09.000Z</time>
      </trkpt>
      <trkpt lat="46.19601" lon="6.59022">
        <ele>1367</ele>
        <time>2015-08-06T08:04:14.000Z</time>
      </trkpt>
      <trkpt lat="46.19599" lon="6.59006">
        <ele>1367</ele>
        <time>2015-08-06T08:04:19.000Z</time>
      </trkpt>
      <trkpt lat="46.19596" lon="6.58991">
        <ele>1369</ele>
        <time>2015-08-06T08:04:24.000Z</time>
      </trkpt>
      <trkpt lat="46.19596" lon="6.58974">
        <ele>1369</ele>
        <time>2015-08-06T08:04:29.000Z</time>
      </trkpt>
      <trkpt lat="46.19592" lon="6.58959">
        <ele>1371</ele>
        <time>2015-08-06T08:04:34.000Z</time>
      </trkpt>
      <trkpt lat="46.19588" lon="6.58946">
        <ele>1371.5699968</ele>
        <time>2015-08-06T08:04:40.000Z</time>
      </trkpt>
      <trkpt lat="46.19581" lon="6.58932">
        <ele>1372</ele>
        <time>2015-08-06T08:04:46.000Z</time>
      </trkpt>
      <trkpt lat="46.19574" lon="6.58921">
        <ele>1373.1399936</ele>
        <time>2015-08-06T08:04:50.000Z</time>
      </trkpt>
      <trkpt lat="46.19568" lon="6.58907">
        <ele>1374</ele>
        <time>2015-08-06T08:04:54.000Z</time>
      </trkpt>
      <trkpt lat="46.19564" lon="6.5889">
        <ele>1374</ele>
        <time>2015-08-06T08:04:59.000Z</time>
      </trkpt>
      <trkpt lat="46.19559" lon="6.58877">
        <ele>1376</ele>
        <time>2015-08-06T08:05:04.000Z</time>
      </trkpt>
      <trkpt lat="46.19556" lon="6.58861">
        <ele>1377.7099904</ele>
        <time>2015-08-06T08:05:10.000Z</time>
      </trkpt>
      <trkpt lat="46.19552" lon="6.58844">
        <ele>1380.1399936</ele>
        <time>2015-08-06T08:05:15.000Z</time>
      </trkpt>
      <trkpt lat="46.1955" lon="6.5883">
        <ele>1381</ele>
        <time>2015-08-06T08:05:19.000Z</time>
      </trkpt>
      <trkpt lat="46.19545" lon="6.58813">
        <ele>1381</ele>
        <time>2015-08-06T08:05:24.000Z</time>
      </trkpt>
      <trkpt lat="46.19535" lon="6.5881">
        <ele>1382</ele>
        <time>2015-08-06T08:05:34.000Z</time>
      </trkpt>
      <trkpt lat="46.19526" lon="6.58818">
        <ele>1387</ele>
        <time>2015-08-06T08:05:46.000Z</time>
      </trkpt>
      <trkpt lat="46.19516" lon="6.5882">
        <ele>1390.1399936</ele>
        <time>2015-08-06T08:05:55.000Z</time>
      </trkpt>
      <trkpt lat="46.19506" lon="6.58821">
        <ele>1396</ele>
        <time>2015-08-06T08:06:11.000Z</time>
      </trkpt>
      <trkpt lat="46.19496" lon="6.58819">
        <ele>1400.1399936</ele>
        <time>2015-08-06T08:06:25.000Z</time>
      </trkpt>
      <trkpt lat="46.19485" lon="6.58821">
        <ele>1411</ele>
        <time>2015-08-06T08:06:57.000Z</time>
      </trkpt>
      <trkpt lat="46.19478" lon="6.58811">
        <ele>1425</ele>
        <time>2015-08-06T08:07:41.000Z</time>
      </trkpt>
      <trkpt lat="46.19467" lon="6.58808">
        <ele>1427</ele>
        <time>2015-08-06T08:07:53.000Z</time>
      </trkpt>
      <trkpt lat="46.19457" lon="6.58801">
        <ele>1422</ele>
        <time>2015-08-06T08:08:03.000Z</time>
      </trkpt>
      <trkpt lat="46.19453" lon="6.58786">
        <ele>1423</ele>
        <time>2015-08-06T08:08:11.000Z</time>
      </trkpt>
      <trkpt lat="46.19446" lon="6.58771">
        <ele>1423</ele>
        <time>2015-08-06T08:08:19.000Z</time>
      </trkpt>
      <trkpt lat="46.19435" lon="6.58763">
        <ele>1423</ele>
        <time>2015-08-06T08:08:23.000Z</time>
      </trkpt>
      <trkpt lat="46.19426" lon="6.58755">
        <ele>1423</ele>
        <time>2015-08-06T08:08:27.000Z</time>
      </trkpt>
      <trkpt lat="46.19418" lon="6.58747">
        <ele>1422</ele>
        <time>2015-08-06T08:08:32.000Z</time>
      </trkpt>
      <trkpt lat="46.19408" lon="6.58737">
        <ele>1422</ele>
        <time>2015-08-06T08:08:38.000Z</time>
      </trkpt>
      <trkpt lat="46.19399" lon="6.58729">
        <ele>1422</ele>
        <time>2015-08-06T08:08:42.000Z</time>
      </trkpt>
      <trkpt lat="46.1939" lon="6.58718">
        <ele>1422</ele>
        <time>2015-08-06T08:08:49.000Z</time>
      </trkpt>
      <trkpt lat="46.19382" lon="6.58709">
        <ele>1430</ele>
        <time>2015-08-06T08:09:06.000Z</time>
      </trkpt>
      <trkpt lat="46.19376" lon="6.58697">
        <ele>1434</ele>
        <time>2015-08-06T08:09:18.000Z</time>
      </trkpt>
      <trkpt lat="46.19373" lon="6.58683">
        <ele>1439</ele>
        <time>2015-08-06T08:09:36.000Z</time>
      </trkpt>
      <trkpt lat="46.19368" lon="6.58669">
        <ele>1442</ele>
        <time>2015-08-06T08:09:48.000Z</time>
      </trkpt>
      <trkpt lat="46.19362" lon="6.58656">
        <ele>1445.5699968</ele>
        <time>2015-08-06T08:10:00.000Z</time>
      </trkpt>
      <trkpt lat="46.19363" lon="6.5864">
        <ele>1449</ele>
        <time>2015-08-06T08:10:12.000Z</time>
      </trkpt>
      <trkpt lat="46.19357" lon="6.58628">
        <ele>1451</ele>
        <time>2015-08-06T08:10:23.000Z</time>
      </trkpt>
      <trkpt lat="46.19355" lon="6.58613">
        <ele>1455.5699968</ele>
        <time>2015-08-06T08:10:35.000Z</time>
      </trkpt>
      <trkpt lat="46.19359" lon="6.58599">
        <ele>1462</ele>
        <time>2015-08-06T08:10:59.000Z</time>
      </trkpt>
      <trkpt lat="46.1937" lon="6.58597">
        <ele>1465</ele>
        <time>2015-08-06T08:11:08.000Z</time>
      </trkpt>
      <trkpt lat="46.19374" lon="6.58583">
        <ele>1474</ele>
        <time>2015-08-06T08:11:39.000Z</time>
      </trkpt>
      <trkpt lat="46.19384" lon="6.58579">
        <ele>1474</ele>
        <time>2015-08-06T08:11:45.000Z</time>
      </trkpt>
      <trkpt lat="46.19395" lon="6.58575">
        <ele>1476</ele>
        <time>2015-08-06T08:11:55.000Z</time>
      </trkpt>
      <trkpt lat="46.19402" lon="6.58564">
        <ele>1487</ele>
        <time>2015-08-06T08:12:21.000Z</time>
      </trkpt>
      <trkpt lat="46.19399" lon="6.58551">
        <ele>1492</ele>
        <time>2015-08-06T08:12:36.000Z</time>
      </trkpt>
      <trkpt lat="46.19397" lon="6.58536">
        <ele>1498</ele>
        <time>2015-08-06T08:12:58.000Z</time>
      </trkpt>
      <trkpt lat="46.19397" lon="6.58521">
        <ele>1503</ele>
        <time>2015-08-06T08:13:17.000Z</time>
      </trkpt>
      <trkpt lat="46.19391" lon="6.58508">
        <ele>1505</ele>
        <time>2015-08-06T08:13:28.000Z</time>
      </trkpt>
      <trkpt lat="46.19386" lon="6.58496">
        <ele>1506</ele>
        <time>2015-08-06T08:13:35.000Z</time>
      </trkpt>
      <trkpt lat="46.1938" lon="6.58482">
        <ele>1507</ele>
        <time>2015-08-06T08:13:44.000Z</time>
      </trkpt>
      <trkpt lat="46.19374" lon="6.58469">
        <ele>1509</ele>
        <time>2015-08-06T08:13:52.000Z</time>
      </trkpt>
      <trkpt lat="46.19368" lon="6.58457">
        <ele>1509</ele>
        <time>2015-08-06T08:13:59.000Z</time>
      </trkpt>
      <trkpt lat="46.1936" lon="6.58449">
        <ele>1514</ele>
        <time>2015-08-06T08:14:06.000Z</time>
      </trkpt>
      <trkpt lat="46.19351" lon="6.58441">
        <ele>1516</ele>
        <time>2015-08-06T08:14:14.000Z</time>
      </trkpt>
      <trkpt lat="46.19344" lon="6.58429">
        <ele>1518</ele>
        <time>2015-08-06T08:14:22.000Z</time>
      </trkpt>
      <trkpt lat="46.19335" lon="6.58421">
        <ele>1518</ele>
        <time>2015-08-06T08:14:29.000Z</time>
      </trkpt>
      <trkpt lat="46.19327" lon="6.58411">
        <ele>1519</ele>
        <time>2015-08-06T08:14:39.000Z</time>
      </trkpt>
      <trkpt lat="46.19325" lon="6.58395">
        <ele>1521</ele>
        <time>2015-08-06T08:14:46.000Z</time>
      </trkpt>
      <trkpt lat="46.19322" lon="6.5838">
        <ele>1522</ele>
        <time>2015-08-06T08:14:52.000Z</time>
      </trkpt>
      <trkpt lat="46.1932" lon="6.58364">
        <ele>1522</ele>
        <time>2015-08-06T08:14:59.000Z</time>
      </trkpt>
      <trkpt lat="46.19318" lon="6.58349">
        <ele>1523</ele>
        <time>2015-08-06T08:15:06.000Z</time>
      </trkpt>
      <trkpt lat="46.19309" lon="6.5834">
        <ele>1525</ele>
        <time>2015-08-06T08:15:15.000Z</time>
      </trkpt>
      <trkpt lat="46.193" lon="6.58331">
        <ele>1527</ele>
        <time>2015-08-06T08:15:24.000Z</time>
      </trkpt>
      <trkpt lat="46.19292" lon="6.58322">
        <ele>1531.1399936</ele>
        <time>2015-08-06T08:15:35.000Z</time>
      </trkpt>
      <trkpt lat="46.19282" lon="6.5832">
        <ele>1533</ele>
        <time>2015-08-06T08:15:42.000Z</time>
      </trkpt>
      <trkpt lat="46.19273" lon="6.58312">
        <ele>1534</ele>
        <time>2015-08-06T08:15:48.000Z</time>
      </trkpt>
      <trkpt lat="46.19263" lon="6.58303">
        <ele>1534</ele>
        <time>2015-08-06T08:15:55.000Z</time>
      </trkpt>
      <trkpt lat="46.19256" lon="6.5829">
        <ele>1531</ele>
        <time>2015-08-06T08:16:01.000Z</time>
      </trkpt>
      <trkpt lat="46.19255" lon="6.58273">
        <ele>1531</ele>
        <time>2015-08-06T08:16:06.000Z</time>
      </trkpt>
      <trkpt lat="46.19255" lon="6.58256">
        <ele>1531</ele>
        <time>2015-08-06T08:16:10.000Z</time>
      </trkpt>
      <trkpt lat="46.19252" lon="6.5824">
        <ele>1531</ele>
        <time>2015-08-06T08:16:14.000Z</time>
      </trkpt>
      <trkpt lat="46.19247" lon="6.58225">
        <ele>1531</ele>
        <time>2015-08-06T08:16:19.000Z</time>
      </trkpt>
      <trkpt lat="46.1925" lon="6.58211">
        <ele>1530</ele>
        <time>2015-08-06T08:16:26.000Z</time>
      </trkpt>
      <trkpt lat="46.1925" lon="6.58195">
        <ele>1533</ele>
        <time>2015-08-06T08:16:32.000Z</time>
      </trkpt>
      <trkpt lat="46.19248" lon="6.58179">
        <ele>1534</ele>
        <time>2015-08-06T08:16:37.000Z</time>
      </trkpt>
      <trkpt lat="46.19257" lon="6.58167">
        <ele>1534</ele>
        <time>2015-08-06T08:16:42.000Z</time>
      </trkpt>
      <trkpt lat="46.19269" lon="6.58166">
        <ele>1534</ele>
        <time>2015-08-06T08:16:50.000Z</time>
      </trkpt>
      <trkpt lat="46.1928" lon="6.58166">
        <ele>1534</ele>
        <time>2015-08-06T08:16:55.000Z</time>
      </trkpt>
      <trkpt lat="46.1929" lon="6.58164">
        <ele>1531.7200128</ele>
        <time>2015-08-06T08:17:00.000Z</time>
      </trkpt>
      <trkpt lat="46.19298" lon="6.58153">
        <ele>1529</ele>
        <time>2015-08-06T08:17:08.000Z</time>
      </trkpt>
      <trkpt lat="46.19307" lon="6.58145">
        <ele>1526</ele>
        <time>2015-08-06T08:17:13.000Z</time>
      </trkpt>
      <trkpt lat="46.19316" lon="6.58137">
        <ele>1525</ele>
        <time>2015-08-06T08:17:18.000Z</time>
      </trkpt>
      <trkpt lat="46.19325" lon="6.58133">
        <ele>1522</ele>
        <time>2015-08-06T08:17:23.000Z</time>
      </trkpt>
      <trkpt lat="46.19336" lon="6.58129">
        <ele>1521</ele>
        <time>2015-08-06T08:17:28.000Z</time>
      </trkpt>
      <trkpt lat="46.19347" lon="6.58126">
        <ele>1523</ele>
        <time>2015-08-06T08:17:33.000Z</time>
      </trkpt>
      <trkpt lat="46.19357" lon="6.58118">
        <ele>1523</ele>
        <time>2015-08-06T08:17:38.000Z</time>
      </trkpt>
      <trkpt lat="46.19361" lon="6.58102">
        <ele>1523</ele>
        <time>2015-08-06T08:17:42.000Z</time>
      </trkpt>
      <trkpt lat="46.19364" lon="6.58088">
        <ele>1523</ele>
        <time>2015-08-06T08:17:47.000Z</time>
      </trkpt>
      <trkpt lat="46.1937" lon="6.58076">
        <ele>1517.7200128</ele>
        <time>2015-08-06T08:17:55.000Z</time>
      </trkpt>
      <trkpt lat="46.19378" lon="6.58065">
        <ele>1512.4300032</ele>
        <time>2015-08-06T08:18:04.000Z</time>
      </trkpt>
      <trkpt lat="46.19383" lon="6.58053">
        <ele>1511</ele>
        <time>2015-08-06T08:18:08.000Z</time>
      </trkpt>
      <trkpt lat="46.19385" lon="6.58036">
        <ele>1509</ele>
        <time>2015-08-06T08:18:13.000Z</time>
      </trkpt>
      <trkpt lat="46.19388" lon="6.58021">
        <ele>1507</ele>
        <time>2015-08-06T08:18:17.000Z</time>
      </trkpt>
      <trkpt lat="46.19389" lon="6.58006">
        <ele>1505</ele>
        <time>2015-08-06T08:18:22.000Z</time>
      </trkpt>
      <trkpt lat="46.19397" lon="6.57995">
        <ele>1503.2900096</ele>
        <time>2015-08-06T08:18:25.000Z</time>
      </trkpt>
      <trkpt lat="46.19406" lon="6.57982">
        <ele>1502</ele>
        <time>2015-08-06T08:18:29.000Z</time>
      </trkpt>
      <trkpt lat="46.19414" lon="6.5797">
        <ele>1503</ele>
        <time>2015-08-06T08:18:34.000Z</time>
      </trkpt>
      <trkpt lat="46.19424" lon="6.57964">
        <ele>1503</ele>
        <time>2015-08-06T08:18:39.000Z</time>
      </trkpt>
      <trkpt lat="46.19434" lon="6.57962">
        <ele>1505</ele>
        <time>2015-08-06T08:18:45.000Z</time>
      </trkpt>
      <trkpt lat="46.19444" lon="6.57964">
        <ele>1509</ele>
        <time>2015-08-06T08:18:51.000Z</time>
      </trkpt>
      <trkpt lat="46.19454" lon="6.57959">
        <ele>1510</ele>
        <time>2015-08-06T08:18:58.000Z</time>
      </trkpt>
      <trkpt lat="46.19459" lon="6.57947">
        <ele>1511</ele>
        <time>2015-08-06T08:19:08.000Z</time>
      </trkpt>
      <trkpt lat="46.19457" lon="6.57934">
        <ele>1515</ele>
        <time>2015-08-06T08:19:16.000Z</time>
      </trkpt>
      <trkpt lat="46.19454" lon="6.57921">
        <ele>1516</ele>
        <time>2015-08-06T08:19:23.000Z</time>
      </trkpt>
      <trkpt lat="46.1945" lon="6.5791">
        <ele>1516</ele>
        <time>2015-08-06T08:19:29.000Z</time>
      </trkpt>
      <trkpt lat="46.19447" lon="6.57898">
        <ele>1516</ele>
        <time>2015-08-06T08:19:34.000Z</time>
      </trkpt>
      <trkpt lat="46.19444" lon="6.57883">
        <ele>1515.4300032</ele>
        <time>2015-08-06T08:19:40.000Z</time>
      </trkpt>
      <trkpt lat="46.1944" lon="6.57868">
        <ele>1515</ele>
        <time>2015-08-06T08:19:45.000Z</time>
      </trkpt>
      <trkpt lat="46.19432" lon="6.57859">
        <ele>1515</ele>
        <time>2015-08-06T08:19:49.000Z</time>
      </trkpt>
      <trkpt lat="46.19426" lon="6.57849">
        <ele>1515</ele>
        <time>2015-08-06T08:19:53.000Z</time>
      </trkpt>
      <trkpt lat="46.19421" lon="6.57837">
        <ele>1515</ele>
        <time>2015-08-06T08:19:57.000Z</time>
      </trkpt>
      <trkpt lat="46.19413" lon="6.57823">
        <ele>1515</ele>
        <time>2015-08-06T08:20:02.000Z</time>
      </trkpt>
      <trkpt lat="46.19404" lon="6.57814">
        <ele>1515</ele>
        <time>2015-08-06T08:20:07.000Z</time>
      </trkpt>
      <trkpt lat="46.19395" lon="6.57806">
        <ele>1517</ele>
        <time>2015-08-06T08:20:12.000Z</time>
      </trkpt>
      <trkpt lat="46.19385" lon="6.57798">
        <ele>1517</ele>
        <time>2015-08-06T08:20:17.000Z</time>
      </trkpt>
      <trkpt lat="46.19375" lon="6.57791">
        <ele>1518</ele>
        <time>2015-08-06T08:20:22.000Z</time>
      </trkpt>
      <trkpt lat="46.19366" lon="6.57783">
        <ele>1518</ele>
        <time>2015-08-06T08:20:27.000Z</time>
      </trkpt>
      <trkpt lat="46.19357" lon="6.57779">
        <ele>1519</ele>
        <time>2015-08-06T08:20:33.000Z</time>
      </trkpt>
      <trkpt lat="46.19347" lon="6.57775">
        <ele>1521</ele>
        <time>2015-08-06T08:20:41.000Z</time>
      </trkpt>
      <trkpt lat="46.19337" lon="6.57771">
        <ele>1521</ele>
        <time>2015-08-06T08:20:48.000Z</time>
      </trkpt>
      <trkpt lat="46.19328" lon="6.57765">
        <ele>1521</ele>
        <time>2015-08-06T08:20:55.000Z</time>
      </trkpt>
      <trkpt lat="46.19318" lon="6.5776">
        <ele>1521</ele>
        <time>2015-08-06T08:21:03.000Z</time>
      </trkpt>
      <trkpt lat="46.19307" lon="6.5776">
        <ele>1521</ele>
        <time>2015-08-06T08:21:09.000Z</time>
      </trkpt>
      <trkpt lat="46.19296" lon="6.57762">
        <ele>1522</ele>
        <time>2015-08-06T08:21:18.000Z</time>
      </trkpt>
      <trkpt lat="46.19286" lon="6.57758">
        <ele>1524</ele>
        <time>2015-08-06T08:21:24.000Z</time>
      </trkpt>
      <trkpt lat="46.19275" lon="6.57756">
        <ele>1526.2799872</ele>
        <time>2015-08-06T08:21:30.000Z</time>
      </trkpt>
      <trkpt lat="46.19265" lon="6.57753">
        <ele>1530</ele>
        <time>2015-08-06T08:21:36.000Z</time>
      </trkpt>
      <trkpt lat="46.19255" lon="6.57748">
        <ele>1531</ele>
        <time>2015-08-06T08:21:42.000Z</time>
      </trkpt>
      <trkpt lat="46.19246" lon="6.57741">
        <ele>1532</ele>
        <time>2015-08-06T08:21:48.000Z</time>
      </trkpt>
      <trkpt lat="46.19238" lon="6.57732">
        <ele>1533</ele>
        <time>2015-08-06T08:21:55.000Z</time>
      </trkpt>
      <trkpt lat="46.19229" lon="6.57727">
        <ele>1534</ele>
        <time>2015-08-06T08:22:03.000Z</time>
      </trkpt>
      <trkpt lat="46.19218" lon="6.57727">
        <ele>1536</ele>
        <time>2015-08-06T08:22:12.000Z</time>
      </trkpt>
      <trkpt lat="46.19207" lon="6.57728">
        <ele>1540</ele>
        <time>2015-08-06T08:22:21.000Z</time>
      </trkpt>
      <trkpt lat="46.192" lon="6.57717">
        <ele>1544</ele>
        <time>2015-08-06T08:22:33.000Z</time>
      </trkpt>
      <trkpt lat="46.19202" lon="6.57705">
        <ele>1547</ele>
        <time>2015-08-06T08:22:41.000Z</time>
      </trkpt>
      <trkpt lat="46.19196" lon="6.57693">
        <ele>1548</ele>
        <time>2015-08-06T08:22:55.000Z</time>
      </trkpt>
      <trkpt lat="46.1919" lon="6.5768">
        <ele>1550</ele>
        <time>2015-08-06T08:23:05.000Z</time>
      </trkpt>
      <trkpt lat="46.19181" lon="6.57671">
        <ele>1552</ele>
        <time>2015-08-06T08:23:15.000Z</time>
      </trkpt>
      <trkpt lat="46.19171" lon="6.57668">
        <ele>1554</ele>
        <time>2015-08-06T08:23:29.000Z</time>
      </trkpt>
      <trkpt lat="46.19161" lon="6.57664">
        <ele>1560.1287101108</ele>
        <time>2015-08-06T08:23:41.000Z</time>
      </trkpt>
      <trkpt lat="46.19152" lon="6.57656">
        <ele>1562</ele>
        <time>2015-08-06T08:23:48.000Z</time>
      </trkpt>
      <trkpt lat="46.19145" lon="6.57644">
        <ele>1562</ele>
        <time>2015-08-06T08:23:53.000Z</time>
      </trkpt>
      <trkpt lat="46.19139" lon="6.57632">
        <ele>1562</ele>
        <time>2015-08-06T08:23:59.000Z</time>
      </trkpt>
      <trkpt lat="46.19133" lon="6.57618">
        <ele>1567</ele>
        <time>2015-08-06T08:24:08.000Z</time>
      </trkpt>
      <trkpt lat="46.19133" lon="6.57604">
        <ele>1570</ele>
        <time>2015-08-06T08:24:19.000Z</time>
      </trkpt>
      <trkpt lat="46.19139" lon="6.57592">
        <ele>1574</ele>
        <time>2015-08-06T08:24:31.000Z</time>
      </trkpt>
      <trkpt lat="46.19146" lon="6.57579">
        <ele>1577</ele>
        <time>2015-08-06T08:24:44.000Z</time>
      </trkpt>
      <trkpt lat="46.19155" lon="6.57573">
        <ele>1580</ele>
        <time>2015-08-06T08:24:53.000Z</time>
      </trkpt>
      <trkpt lat="46.19163" lon="6.57565">
        <ele>1584</ele>
        <time>2015-08-06T08:25:03.000Z</time>
      </trkpt>
      <trkpt lat="46.19162" lon="6.57551">
        <ele>1588</ele>
        <time>2015-08-06T08:25:28.000Z</time>
      </trkpt>
      <trkpt lat="46.19151" lon="6.57543">
        <ele>1591.1399936</ele>
        <time>2015-08-06T08:25:36.000Z</time>
      </trkpt>
      <trkpt lat="46.19142" lon="6.57536">
        <ele>1593</ele>
        <time>2015-08-06T08:25:42.000Z</time>
      </trkpt>
      <trkpt lat="46.19139" lon="6.57521">
        <ele>1598</ele>
        <time>2015-08-06T08:25:58.000Z</time>
      </trkpt>
      <trkpt lat="46.19131" lon="6.57512">
        <ele>1600</ele>
        <time>2015-08-06T08:26:09.000Z</time>
      </trkpt>
      <trkpt lat="46.19124" lon="6.57499">
        <ele>1602</ele>
        <time>2015-08-06T08:26:18.000Z</time>
      </trkpt>
      <trkpt lat="46.19118" lon="6.57495">
        <ele>1603</ele>
        <time>2015-08-06T08:26:23.000Z</time>
      </trkpt>
      <trkpt lat="46.19112" lon="6.57488">
        <ele>1603</ele>
        <time>2015-08-06T08:26:28.000Z</time>
      </trkpt>
      <trkpt lat="46.19105" lon="6.57482">
        <ele>1606</ele>
        <time>2015-08-06T08:26:35.000Z</time>
      </trkpt>
      <trkpt lat="46.19097" lon="6.57479">
        <ele>1607</ele>
        <time>2015-08-06T08:26:41.000Z</time>
      </trkpt>
      <trkpt lat="46.19088" lon="6.5747">
        <ele>1606</ele>
        <time>2015-08-06T08:26:52.000Z</time>
      </trkpt>
      <trkpt lat="46.19079" lon="6.57461">
        <ele>1604.2900096</ele>
        <time>2015-08-06T08:27:01.000Z</time>
      </trkpt>
      <trkpt lat="46.1907" lon="6.57452">
        <ele>1604</ele>
        <time>2015-08-06T08:27:08.000Z</time>
      </trkpt>
      <trkpt lat="46.19059" lon="6.57448">
        <ele>1604</ele>
        <time>2015-08-06T08:27:15.000Z</time>
      </trkpt>
      <trkpt lat="46.1905" lon="6.57442">
        <ele>1604</ele>
        <time>2015-08-06T08:27:19.000Z</time>
      </trkpt>
      <trkpt lat="46.19041" lon="6.57434">
        <ele>1604</ele>
        <time>2015-08-06T08:27:24.000Z</time>
      </trkpt>
      <trkpt lat="46.19032" lon="6.57423">
        <ele>1604</ele>
        <time>2015-08-06T08:27:28.000Z</time>
      </trkpt>
      <trkpt lat="46.19024" lon="6.57412">
        <ele>1601</ele>
        <time>2015-08-06T08:27:32.000Z</time>
      </trkpt>
      <trkpt lat="46.19013" lon="6.57405">
        <ele>1601</ele>
        <time>2015-08-06T08:27:38.000Z</time>
      </trkpt>
      <trkpt lat="46.19002" lon="6.57401">
        <ele>1601</ele>
        <time>2015-08-06T08:27:44.000Z</time>
      </trkpt>
      <trkpt lat="46.1899" lon="6.57402">
        <ele>1601</ele>
        <time>2015-08-06T08:27:48.000Z</time>
      </trkpt>
      <trkpt lat="46.18978" lon="6.57401">
        <ele>1600</ele>
        <time>2015-08-06T08:27:52.000Z</time>
      </trkpt>
      <trkpt lat="46.18965" lon="6.574">
        <ele>1600</ele>
        <time>2015-08-06T08:27:56.000Z</time>
      </trkpt>
      <trkpt lat="46.18955" lon="6.57402">
        <ele>1600</ele>
        <time>2015-08-06T08:28:00.000Z</time>
      </trkpt>
      <trkpt lat="46.18945" lon="6.57407">
        <ele>1601</ele>
        <time>2015-08-06T08:28:06.000Z</time>
      </trkpt>
      <trkpt lat="46.18933" lon="6.57406">
        <ele>1601</ele>
        <time>2015-08-06T08:28:11.000Z</time>
      </trkpt>
      <trkpt lat="46.18922" lon="6.57403">
        <ele>1601</ele>
        <time>2015-08-06T08:28:15.000Z</time>
      </trkpt>
      <trkpt lat="46.18912" lon="6.57405">
        <ele>1601</ele>
        <time>2015-08-06T08:28:19.000Z</time>
      </trkpt>
      <trkpt lat="46.18902" lon="6.5741">
        <ele>1601</ele>
        <time>2015-08-06T08:28:25.000Z</time>
      </trkpt>
      <trkpt lat="46.18892" lon="6.57413">
        <ele>1601</ele>
        <time>2015-08-06T08:28:30.000Z</time>
      </trkpt>
      <trkpt lat="46.18882" lon="6.57419">
        <ele>1603</ele>
        <time>2015-08-06T08:28:36.000Z</time>
      </trkpt>
      <trkpt lat="46.18873" lon="6.57423">
        <ele>1604.1399936</ele>
        <time>2015-08-06T08:28:41.000Z</time>
      </trkpt>
      <trkpt lat="46.18862" lon="6.57429">
        <ele>1605</ele>
        <time>2015-08-06T08:28:48.000Z</time>
      </trkpt>
      <trkpt lat="46.18851" lon="6.57434">
        <ele>1607</ele>
        <time>2015-08-06T08:28:53.000Z</time>
      </trkpt>
      <trkpt lat="46.1884" lon="6.57434">
        <ele>1607</ele>
        <time>2015-08-06T08:28:58.000Z</time>
      </trkpt>
      <trkpt lat="46.18828" lon="6.57434">
        <ele>1607</ele>
        <time>2015-08-06T08:29:03.000Z</time>
      </trkpt>
      <trkpt lat="46.18818" lon="6.57437">
        <ele>1607</ele>
        <time>2015-08-06T08:29:08.000Z</time>
      </trkpt>
      <trkpt lat="46.18807" lon="6.57441">
        <ele>1608</ele>
        <time>2015-08-06T08:29:13.000Z</time>
      </trkpt>
      <trkpt lat="46.18795" lon="6.57442">
        <ele>1608</ele>
        <time>2015-08-06T08:29:19.000Z</time>
      </trkpt>
      <trkpt lat="46.18784" lon="6.5744">
        <ele>1608</ele>
        <time>2015-08-06T08:29:24.000Z</time>
      </trkpt>
      <trkpt lat="46.18774" lon="6.5744">
        <ele>1608</ele>
        <time>2015-08-06T08:29:29.000Z</time>
      </trkpt>
      <trkpt lat="46.18764" lon="6.5744">
        <ele>1609</ele>
        <time>2015-08-06T08:29:34.000Z</time>
      </trkpt>
      <trkpt lat="46.18753" lon="6.57442">
        <ele>1609</ele>
        <time>2015-08-06T08:29:40.000Z</time>
      </trkpt>
      <trkpt lat="46.18743" lon="6.57449">
        <ele>1610</ele>
        <time>2015-08-06T08:29:46.000Z</time>
      </trkpt>
      <trkpt lat="46.18733" lon="6.57454">
        <ele>1612</ele>
        <time>2015-08-06T08:29:52.000Z</time>
      </trkpt>
      <trkpt lat="46.18723" lon="6.57461">
        <ele>1612</ele>
        <time>2015-08-06T08:29:59.000Z</time>
      </trkpt>
      <trkpt lat="46.18714" lon="6.57469">
        <ele>1614</ele>
        <time>2015-08-06T08:30:07.000Z</time>
      </trkpt>
      <trkpt lat="46.18705" lon="6.57477">
        <ele>1618</ele>
        <time>2015-08-06T08:30:15.000Z</time>
      </trkpt>
      <trkpt lat="46.18696" lon="6.57484">
        <ele>1621</ele>
        <time>2015-08-06T08:30:25.000Z</time>
      </trkpt>
      <trkpt lat="46.18687" lon="6.5749">
        <ele>1624</ele>
        <time>2015-08-06T08:30:33.000Z</time>
      </trkpt>
      <trkpt lat="46.18676" lon="6.57493">
        <ele>1625</ele>
        <time>2015-08-06T08:30:43.000Z</time>
      </trkpt>
      <trkpt lat="46.18665" lon="6.57493">
        <ele>1625</ele>
        <time>2015-08-06T08:30:50.000Z</time>
      </trkpt>
      <trkpt lat="46.18655" lon="6.57489">
        <ele>1625</ele>
        <time>2015-08-06T08:30:57.000Z</time>
      </trkpt>
      <trkpt lat="46.18645" lon="6.5748">
        <ele>1620</ele>
        <time>2015-08-06T08:31:03.000Z</time>
      </trkpt>
      <trkpt lat="46.18635" lon="6.57472">
        <ele>1620</ele>
        <time>2015-08-06T08:31:08.000Z</time>
      </trkpt>
      <trkpt lat="46.18627" lon="6.57462">
        <ele>1620</ele>
        <time>2015-08-06T08:31:12.000Z</time>
      </trkpt>
      <trkpt lat="46.18619" lon="6.57451">
        <ele>1620</ele>
        <time>2015-08-06T08:31:16.000Z</time>
      </trkpt>
      <trkpt lat="46.1861" lon="6.57442">
        <ele>1619.4300032</ele>
        <time>2015-08-06T08:31:21.000Z</time>
      </trkpt>
      <trkpt lat="46.186" lon="6.57435">
        <ele>1619</ele>
        <time>2015-08-06T08:31:27.000Z</time>
      </trkpt>
      <trkpt lat="46.18591" lon="6.57425">
        <ele>1619</ele>
        <time>2015-08-06T08:31:32.000Z</time>
      </trkpt>
      <trkpt lat="46.18581" lon="6.57416">
        <ele>1619</ele>
        <time>2015-08-06T08:31:37.000Z</time>
      </trkpt>
      <trkpt lat="46.18571" lon="6.5741">
        <ele>1619</ele>
        <time>2015-08-06T08:31:42.000Z</time>
      </trkpt>
      <trkpt lat="46.18562" lon="6.57406">
        <ele>1619</ele>
        <time>2015-08-06T08:31:47.000Z</time>
      </trkpt>
      <trkpt lat="46.18552" lon="6.57402">
        <ele>1621</ele>
        <time>2015-08-06T08:31:55.000Z</time>
      </trkpt>
      <trkpt lat="46.18542" lon="6.57398">
        <ele>1624</ele>
        <time>2015-08-06T08:32:03.000Z</time>
      </trkpt>
      <trkpt lat="46.18531" lon="6.57399">
        <ele>1628</ele>
        <time>2015-08-06T08:32:12.000Z</time>
      </trkpt>
      <trkpt lat="46.18521" lon="6.574">
        <ele>1628</ele>
        <time>2015-08-06T08:32:21.000Z</time>
      </trkpt>
      <trkpt lat="46.18512" lon="6.57407">
        <ele>1628</ele>
        <time>2015-08-06T08:32:29.000Z</time>
      </trkpt>
      <trkpt lat="46.18503" lon="6.57415">
        <ele>1630</ele>
        <time>2015-08-06T08:32:37.000Z</time>
      </trkpt>
      <trkpt lat="46.18494" lon="6.57422">
        <ele>1631</ele>
        <time>2015-08-06T08:32:45.000Z</time>
      </trkpt>
      <trkpt lat="46.18485" lon="6.57429">
        <ele>1633</ele>
        <time>2015-08-06T08:32:52.000Z</time>
      </trkpt>
      <trkpt lat="46.18474" lon="6.57429">
        <ele>1633</ele>
        <time>2015-08-06T08:32:57.000Z</time>
      </trkpt>
      <trkpt lat="46.18464" lon="6.5743">
        <ele>1637</ele>
        <time>2015-08-06T08:33:07.000Z</time>
      </trkpt>
      <trkpt lat="46.18455" lon="6.57438">
        <ele>1636</ele>
        <time>2015-08-06T08:33:16.000Z</time>
      </trkpt>
      <trkpt lat="46.18445" lon="6.57441">
        <ele>1636</ele>
        <time>2015-08-06T08:33:23.000Z</time>
      </trkpt>
      <trkpt lat="46.18435" lon="6.57441">
        <ele>1636</ele>
        <time>2015-08-06T08:33:30.000Z</time>
      </trkpt>
      <trkpt lat="46.18425" lon="6.57445">
        <ele>1638</ele>
        <time>2015-08-06T08:33:40.000Z</time>
      </trkpt>
      <trkpt lat="46.18415" lon="6.57445">
        <ele>1639</ele>
        <time>2015-08-06T08:33:46.000Z</time>
      </trkpt>
      <trkpt lat="46.18405" lon="6.57448">
        <ele>1640</ele>
        <time>2015-08-06T08:33:53.000Z</time>
      </trkpt>
      <trkpt lat="46.18394" lon="6.57454">
        <ele>1640</ele>
        <time>2015-08-06T08:33:59.000Z</time>
      </trkpt>
      <trkpt lat="46.18387" lon="6.57465">
        <ele>1638</ele>
        <time>2015-08-06T08:34:04.000Z</time>
      </trkpt>
      <trkpt lat="46.18379" lon="6.57474">
        <ele>1638.5699968</ele>
        <time>2015-08-06T08:34:11.000Z</time>
      </trkpt>
      <trkpt lat="46.18369" lon="6.5748">
        <ele>1639</ele>
        <time>2015-08-06T08:34:18.000Z</time>
      </trkpt>
      <trkpt lat="46.18359" lon="6.57485">
        <ele>1641</ele>
        <time>2015-08-06T08:34:26.000Z</time>
      </trkpt>
      <trkpt lat="46.18348" lon="6.57487">
        <ele>1643</ele>
        <time>2015-08-06T08:34:34.000Z</time>
      </trkpt>
      <trkpt lat="46.18337" lon="6.57487">
        <ele>1646</ele>
        <time>2015-08-06T08:34:42.000Z</time>
      </trkpt>
      <trkpt lat="46.18327" lon="6.57491">
        <ele>1648</ele>
        <time>2015-08-06T08:34:50.000Z</time>
      </trkpt>
      <trkpt lat="46.18316" lon="6.57491">
        <ele>1650</ele>
        <time>2015-08-06T08:34:58.000Z</time>
      </trkpt>
      <trkpt lat="46.18306" lon="6.57498">
        <ele>1651</ele>
        <time>2015-08-06T08:35:07.000Z</time>
      </trkpt>
      <trkpt lat="46.18296" lon="6.57505">
        <ele>1651</ele>
        <time>2015-08-06T08:35:16.000Z</time>
      </trkpt>
      <trkpt lat="46.18287" lon="6.57513">
        <ele>1651</ele>
        <time>2015-08-06T08:35:26.000Z</time>
      </trkpt>
      <trkpt lat="46.18278" lon="6.5752">
        <ele>1651</ele>
        <time>2015-08-06T08:35:35.000Z</time>
      </trkpt>
      <trkpt lat="46.18268" lon="6.57518">
        <ele>1651</ele>
        <time>2015-08-06T08:35:39.000Z</time>
      </trkpt>
      <trkpt lat="46.18257" lon="6.57523">
        <ele>1652</ele>
        <time>2015-08-06T08:35:46.000Z</time>
      </trkpt>
      <trkpt lat="46.18246" lon="6.57527">
        <ele>1653</ele>
        <time>2015-08-06T08:35:52.000Z</time>
      </trkpt>
      <trkpt lat="46.18235" lon="6.57532">
        <ele>1653</ele>
        <time>2015-08-06T08:35:59.000Z</time>
      </trkpt>
      <trkpt lat="46.18227" lon="6.5754">
        <ele>1655</ele>
        <time>2015-08-06T08:36:07.000Z</time>
      </trkpt>
      <trkpt lat="46.18216" lon="6.57545">
        <ele>1656</ele>
        <time>2015-08-06T08:36:16.000Z</time>
      </trkpt>
      <trkpt lat="46.18208" lon="6.57554">
        <ele>1661</ele>
        <time>2015-08-06T08:36:27.000Z</time>
      </trkpt>
      <trkpt lat="46.18201" lon="6.57564">
        <ele>1663</ele>
        <time>2015-08-06T08:36:38.000Z</time>
      </trkpt>
      <trkpt lat="46.18191" lon="6.57569">
        <ele>1666</ele>
        <time>2015-08-06T08:36:47.000Z</time>
      </trkpt>
      <trkpt lat="46.18182" lon="6.57578">
        <ele>1666</ele>
        <time>2015-08-06T08:36:56.000Z</time>
      </trkpt>
      <trkpt lat="46.18172" lon="6.57578">
        <ele>1671</ele>
        <time>2015-08-06T08:37:09.000Z</time>
      </trkpt>
      <trkpt lat="46.18162" lon="6.57581">
        <ele>1673.7099904</ele>
        <time>2015-08-06T08:37:21.000Z</time>
      </trkpt>
      <trkpt lat="46.18152" lon="6.5758">
        <ele>1680</ele>
        <time>2015-08-06T08:37:38.000Z</time>
      </trkpt>
      <trkpt lat="46.18142" lon="6.57573">
        <ele>1684</ele>
        <time>2015-08-06T08:37:50.000Z</time>
      </trkpt>
      <trkpt lat="46.18132" lon="6.5757">
        <ele>1685</ele>
        <time>2015-08-06T08:37:58.000Z</time>
      </trkpt>
      <trkpt lat="46.18122" lon="6.57566">
        <ele>1685</ele>
        <time>2015-08-06T08:38:07.000Z</time>
      </trkpt>
      <trkpt lat="46.18115" lon="6.57568">
        <ele>1687</ele>
        <time>2015-08-06T08:38:14.000Z</time>
      </trkpt>
      <trkpt lat="46.18105" lon="6.57569">
        <ele>1688</ele>
        <time>2015-08-06T08:38:22.000Z</time>
      </trkpt>
      <trkpt lat="46.18095" lon="6.57576">
        <ele>1689</ele>
        <time>2015-08-06T08:38:32.000Z</time>
      </trkpt>
      <trkpt lat="46.18088" lon="6.57579">
        <ele>1689</ele>
        <time>2015-08-06T08:38:39.000Z</time>
      </trkpt>
      <trkpt lat="46.1808" lon="6.57585">
        <ele>1691</ele>
        <time>2015-08-06T08:38:46.000Z</time>
      </trkpt>
      <trkpt lat="46.18071" lon="6.57595">
        <ele>1696</ele>
        <time>2015-08-06T08:38:57.000Z</time>
      </trkpt>
      <trkpt lat="46.18062" lon="6.57602">
        <ele>1696</ele>
        <time>2015-08-06T08:39:06.000Z</time>
      </trkpt>
      <trkpt lat="46.18052" lon="6.57602">
        <ele>1697</ele>
        <time>2015-08-06T08:39:15.000Z</time>
      </trkpt>
      <trkpt lat="46.18042" lon="6.57605">
        <ele>1699</ele>
        <time>2015-08-06T08:39:29.000Z</time>
      </trkpt>
      <trkpt lat="46.18032" lon="6.57602">
        <ele>1705</ele>
        <time>2015-08-06T08:39:45.000Z</time>
      </trkpt>
      <trkpt lat="46.18023" lon="6.57608">
        <ele>1709</ele>
        <time>2015-08-06T08:39:57.000Z</time>
      </trkpt>
      <trkpt lat="46.18014" lon="6.57617">
        <ele>1711</ele>
        <time>2015-08-06T08:40:09.000Z</time>
      </trkpt>
      <trkpt lat="46.18004" lon="6.57612">
        <ele>1715</ele>
        <time>2015-08-06T08:40:20.000Z</time>
      </trkpt>
      <trkpt lat="46.17994" lon="6.57615">
        <ele>1719</ele>
        <time>2015-08-06T08:40:35.000Z</time>
      </trkpt>
      <trkpt lat="46.17984" lon="6.57616">
        <ele>1723</ele>
        <time>2015-08-06T08:40:49.000Z</time>
      </trkpt>
      <trkpt lat="46.17974" lon="6.57613">
        <ele>1724</ele>
        <time>2015-08-06T08:40:59.000Z</time>
      </trkpt>
      <trkpt lat="46.17964" lon="6.57607">
        <ele>1727.1399936</ele>
        <time>2015-08-06T08:41:11.000Z</time>
      </trkpt>
      <trkpt lat="46.17954" lon="6.57606">
        <ele>1728</ele>
        <time>2015-08-06T08:41:19.000Z</time>
      </trkpt>
      <trkpt lat="46.17943" lon="6.57608">
        <ele>1732</ele>
        <time>2015-08-06T08:41:27.000Z</time>
      </trkpt>
      <trkpt lat="46.17932" lon="6.57606">
        <ele>1733</ele>
        <time>2015-08-06T08:41:34.000Z</time>
      </trkpt>
      <trkpt lat="46.17921" lon="6.57606">
        <ele>1733.5656547373</ele>
        <time>2015-08-06T08:41:41.000Z</time>
      </trkpt>
      <trkpt lat="46.17911" lon="6.5761">
        <ele>1734</ele>
        <time>2015-08-06T08:41:48.000Z</time>
      </trkpt>
      <trkpt lat="46.17902" lon="6.57613">
        <ele>1736</ele>
        <time>2015-08-06T08:41:55.000Z</time>
      </trkpt>
      <trkpt lat="46.17892" lon="6.57618">
        <ele>1736</ele>
        <time>2015-08-06T08:42:02.000Z</time>
      </trkpt>
      <trkpt lat="46.17881" lon="6.5762">
        <ele>1736</ele>
        <time>2015-08-06T08:42:10.000Z</time>
      </trkpt>
      <trkpt lat="46.17872" lon="6.57625">
        <ele>1737</ele>
        <time>2015-08-06T08:42:16.000Z</time>
      </trkpt>
      <trkpt lat="46.17864" lon="6.57629">
        <ele>1739</ele>
        <time>2015-08-06T08:42:23.000Z</time>
      </trkpt>
      <trkpt lat="46.17855" lon="6.57629">
        <ele>1739</ele>
        <time>2015-08-06T08:42:30.000Z</time>
      </trkpt>
      <trkpt lat="46.17847" lon="6.57628">
        <ele>1741</ele>
        <time>2015-08-06T08:42:36.000Z</time>
      </trkpt>
      <trkpt lat="46.17839" lon="6.57631">
        <ele>1744</ele>
        <time>2015-08-06T08:42:42.000Z</time>
      </trkpt>
      <trkpt lat="46.1783" lon="6.5763">
        <ele>1744</ele>
        <time>2015-08-06T08:42:48.000Z</time>
      </trkpt>
      <trkpt lat="46.17822" lon="6.57629">
        <ele>1744</ele>
        <time>2015-08-06T08:42:53.000Z</time>
      </trkpt>
      <trkpt lat="46.17814" lon="6.5763">
        <ele>1744</ele>
        <time>2015-08-06T08:42:59.000Z</time>
      </trkpt>
      <trkpt lat="46.17806" lon="6.57634">
        <ele>1744</ele>
        <time>2015-08-06T08:43:04.000Z</time>
      </trkpt>
      <trkpt lat="46.17796" lon="6.57633">
        <ele>1744.5643550554</ele>
        <time>2015-08-06T08:43:11.000Z</time>
      </trkpt>
      <trkpt lat="46.17786" lon="6.5763">
        <ele>1745</ele>
        <time>2015-08-06T08:43:18.000Z</time>
      </trkpt>
      <trkpt lat="46.17776" lon="6.57626">
        <ele>1747</ele>
        <time>2015-08-06T08:43:25.000Z</time>
      </trkpt>
      <trkpt lat="46.17767" lon="6.57622">
        <ele>1747</ele>
        <time>2015-08-06T08:43:32.000Z</time>
      </trkpt>
      <trkpt lat="46.17757" lon="6.57618">
        <ele>1747</ele>
        <time>2015-08-06T08:43:40.000Z</time>
      </trkpt>
      <trkpt lat="46.17748" lon="6.57609">
        <ele>1746</ele>
        <time>2015-08-06T08:43:48.000Z</time>
      </trkpt>
      <trkpt lat="46.17737" lon="6.57605">
        <ele>1747</ele>
        <time>2015-08-06T08:43:57.000Z</time>
      </trkpt>
      <trkpt lat="46.17727" lon="6.57598">
        <ele>1748</ele>
        <time>2015-08-06T08:44:05.000Z</time>
      </trkpt>
      <trkpt lat="46.17719" lon="6.57588">
        <ele>1749</ele>
        <time>2015-08-06T08:44:12.000Z</time>
      </trkpt>
      <trkpt lat="46.17712" lon="6.57578">
        <ele>1749</ele>
        <time>2015-08-06T08:44:20.000Z</time>
      </trkpt>
      <trkpt lat="46.17702" lon="6.57569">
        <ele>1750</ele>
        <time>2015-08-06T08:44:29.000Z</time>
      </trkpt>
      <trkpt lat="46.17693" lon="6.57562">
        <ele>1750</ele>
        <time>2015-08-06T08:44:36.000Z</time>
      </trkpt>
      <trkpt lat="46.17684" lon="6.57555">
        <ele>1752</ele>
        <time>2015-08-06T08:44:43.000Z</time>
      </trkpt>
      <trkpt lat="46.17674" lon="6.57547">
        <ele>1752</ele>
        <time>2015-08-06T08:44:50.000Z</time>
      </trkpt>
      <trkpt lat="46.17665" lon="6.5754">
        <ele>1752</ele>
        <time>2015-08-06T08:44:58.000Z</time>
      </trkpt>
      <trkpt lat="46.17656" lon="6.57531">
        <ele>1756</ele>
        <time>2015-08-06T08:45:09.000Z</time>
      </trkpt>
      <trkpt lat="46.17649" lon="6.57522">
        <ele>1757</ele>
        <time>2015-08-06T08:45:17.000Z</time>
      </trkpt>
      <trkpt lat="46.17641" lon="6.57512">
        <ele>1759</ele>
        <time>2015-08-06T08:45:26.000Z</time>
      </trkpt>
      <trkpt lat="46.17633" lon="6.57506">
        <ele>1761</ele>
        <time>2015-08-06T08:45:38.000Z</time>
      </trkpt>
      <trkpt lat="46.17623" lon="6.57502">
        <ele>1767</ele>
        <time>2015-08-06T08:45:52.000Z</time>
      </trkpt>
      <trkpt lat="46.17616" lon="6.57499">
        <ele>1769.1219310196</ele>
        <time>2015-08-06T08:46:00.000Z</time>
      </trkpt>
      <trkpt lat="46.17609" lon="6.57494">
        <ele>1772</ele>
        <time>2015-08-06T08:46:36.000Z</time>
      </trkpt>
      <trkpt lat="46.17605" lon="6.57493">
        <ele>1772</ele>
        <time>2015-08-06T08:46:40.000Z</time>
      </trkpt>
      <trkpt lat="46.17596" lon="6.57493">
        <ele>1773</ele>
        <time>2015-08-06T08:46:48.000Z</time>
      </trkpt>
      <trkpt lat="46.1759" lon="6.57501">
        <ele>1774</ele>
        <time>2015-08-06T08:47:07.000Z</time>
      </trkpt>
      <trkpt lat="46.17591" lon="6.5751">
        <ele>1776</ele>
        <time>2015-08-06T08:47:14.000Z</time>
      </trkpt>
      <trkpt lat="46.17593" lon="6.57525">
        <ele>1778</ele>
        <time>2015-08-06T08:47:27.000Z</time>
      </trkpt>
      <trkpt lat="46.17592" lon="6.57539">
        <ele>1781</ele>
        <time>2015-08-06T08:47:37.000Z</time>
      </trkpt>
      <trkpt lat="46.17595" lon="6.57551">
        <ele>1781</ele>
        <time>2015-08-06T08:47:45.000Z</time>
      </trkpt>
      <trkpt lat="46.17598" lon="6.57566">
        <ele>1782</ele>
        <time>2015-08-06T08:47:57.000Z</time>
      </trkpt>
      <trkpt lat="46.176" lon="6.57581">
        <ele>1786</ele>
        <time>2015-08-06T08:48:09.000Z</time>
      </trkpt>
      <trkpt lat="46.17598" lon="6.57595">
        <ele>1789</ele>
        <time>2015-08-06T08:48:22.000Z</time>
      </trkpt>
      <trkpt lat="46.17594" lon="6.57609">
        <ele>1791</ele>
        <time>2015-08-06T08:48:34.000Z</time>
      </trkpt>
      <trkpt lat="46.17594" lon="6.57624">
        <ele>1796</ele>
        <time>2015-08-06T08:48:48.000Z</time>
      </trkpt>
      <trkpt lat="46.17593" lon="6.5764">
        <ele>1802</ele>
        <time>2015-08-06T08:49:12.000Z</time>
      </trkpt>
      <trkpt lat="46.17595" lon="6.57654">
        <ele>1804</ele>
        <time>2015-08-06T08:49:25.000Z</time>
      </trkpt>
      <trkpt lat="46.17604" lon="6.57662">
        <ele>1810</ele>
        <time>2015-08-06T08:49:43.000Z</time>
      </trkpt>
      <trkpt lat="46.17611" lon="6.5765">
        <ele>1817</ele>
        <time>2015-08-06T08:50:05.000Z</time>
      </trkpt>
      <trkpt lat="46.17618" lon="6.5764">
        <ele>1823</ele>
        <time>2015-08-06T08:50:28.000Z</time>
      </trkpt>
      <trkpt lat="46.17618" lon="6.57655">
        <ele>1827</ele>
        <time>2015-08-06T08:50:47.000Z</time>
      </trkpt>
      <trkpt lat="46.17624" lon="6.57667">
        <ele>1832.4199808</ele>
        <time>2015-08-06T08:51:01.000Z</time>
      </trkpt>
      <trkpt lat="46.1763" lon="6.57679">
        <ele>1835</ele>
        <time>2015-08-06T08:51:12.000Z</time>
      </trkpt>
      <trkpt lat="46.17631" lon="6.57694">
        <ele>1836</ele>
        <time>2015-08-06T08:51:25.000Z</time>
      </trkpt>
      <trkpt lat="46.17632" lon="6.57708">
        <ele>1841</ele>
        <time>2015-08-06T08:51:40.000Z</time>
      </trkpt>
      <trkpt lat="46.17642" lon="6.57715">
        <ele>1841</ele>
        <time>2015-08-06T08:51:47.000Z</time>
      </trkpt>
      <trkpt lat="46.17652" lon="6.57718">
        <ele>1839</ele>
        <time>2015-08-06T08:51:53.000Z</time>
      </trkpt>
      <trkpt lat="46.17662" lon="6.57724">
        <ele>1837.8600064</ele>
        <time>2015-08-06T08:52:01.000Z</time>
      </trkpt>
      <trkpt lat="46.17673" lon="6.57728">
        <ele>1837</ele>
        <time>2015-08-06T08:52:09.000Z</time>
      </trkpt>
      <trkpt lat="46.17682" lon="6.57735">
        <ele>1836</ele>
        <time>2015-08-06T08:52:18.000Z</time>
      </trkpt>
      <trkpt lat="46.17693" lon="6.5774">
        <ele>1835</ele>
        <time>2015-08-06T08:52:29.000Z</time>
      </trkpt>
      <trkpt lat="46.17701" lon="6.57747">
        <ele>1835</ele>
        <time>2015-08-06T08:52:34.000Z</time>
      </trkpt>
      <trkpt lat="46.1771" lon="6.57756">
        <ele>1835</ele>
        <time>2015-08-06T08:52:42.000Z</time>
      </trkpt>
      <trkpt lat="46.17717" lon="6.57766">
        <ele>1835</ele>
        <time>2015-08-06T08:52:50.000Z</time>
      </trkpt>
      <trkpt lat="46.17724" lon="6.57777">
        <ele>1835</ele>
        <time>2015-08-06T08:52:59.000Z</time>
      </trkpt>
      <trkpt lat="46.1773" lon="6.57786">
        <ele>1835</ele>
        <time>2015-08-06T08:53:07.000Z</time>
      </trkpt>
      <trkpt lat="46.17739" lon="6.57793">
        <ele>1841</ele>
        <time>2015-08-06T08:53:38.000Z</time>
      </trkpt>
      <trkpt lat="46.17746" lon="6.57803">
        <ele>1843</ele>
        <time>2015-08-06T08:53:49.000Z</time>
      </trkpt>
      <trkpt lat="46.1775" lon="6.57817">
        <ele>1844</ele>
        <time>2015-08-06T08:53:56.000Z</time>
      </trkpt>
      <trkpt lat="46.17754" lon="6.57831">
        <ele>1842</ele>
        <time>2015-08-06T08:54:04.000Z</time>
      </trkpt>
      <trkpt lat="46.17758" lon="6.57845">
        <ele>1843</ele>
        <time>2015-08-06T08:54:13.000Z</time>
      </trkpt>
      <trkpt lat="46.17765" lon="6.57857">
        <ele>1843</ele>
        <time>2015-08-06T08:54:22.000Z</time>
      </trkpt>
      <trkpt lat="46.17771" lon="6.57866">
        <ele>1845</ele>
        <time>2015-08-06T08:54:33.000Z</time>
      </trkpt>
      <trkpt lat="46.17772" lon="6.57878">
        <ele>1852</ele>
        <time>2015-08-06T08:54:49.000Z</time>
      </trkpt>
      <trkpt lat="46.17779" lon="6.57887">
        <ele>1856</ele>
        <time>2015-08-06T08:55:06.000Z</time>
      </trkpt>
      <trkpt lat="46.17786" lon="6.57898">
        <ele>1858</ele>
        <time>2015-08-06T08:55:18.000Z</time>
      </trkpt>
      <trkpt lat="46.17791" lon="6.57911">
        <ele>1865</ele>
        <time>2015-08-06T08:55:33.000Z</time>
      </trkpt>
      <trkpt lat="46.17795" lon="6.57924">
        <ele>1870</ele>
        <time>2015-08-06T08:55:47.000Z</time>
      </trkpt>
      <trkpt lat="46.17799" lon="6.57939">
        <ele>1874</ele>
        <time>2015-08-06T08:56:05.000Z</time>
      </trkpt>
      <trkpt lat="46.17804" lon="6.57951">
        <ele>1878.5699968</ele>
        <time>2015-08-06T08:56:16.000Z</time>
      </trkpt>
      <trkpt lat="46.17809" lon="6.57963">
        <ele>1882</ele>
        <time>2015-08-06T08:56:34.000Z</time>
      </trkpt>
      <trkpt lat="46.17814" lon="6.57976">
        <ele>1890</ele>
        <time>2015-08-06T08:56:52.000Z</time>
      </trkpt>
      <trkpt lat="46.17816" lon="6.57991">
        <ele>1893</ele>
        <time>2015-08-06T08:57:05.000Z</time>
      </trkpt>
      <trkpt lat="46.17814" lon="6.58005">
        <ele>1894</ele>
        <time>2015-08-06T08:57:17.000Z</time>
      </trkpt>
      <trkpt lat="46.17808" lon="6.58017">
        <ele>1900</ele>
        <time>2015-08-06T08:57:32.000Z</time>
      </trkpt>
      <trkpt lat="46.17805" lon="6.58031">
        <ele>1906</ele>
        <time>2015-08-06T08:57:55.000Z</time>
      </trkpt>
      <trkpt lat="46.17813" lon="6.58022">
        <ele>1912</ele>
        <time>2015-08-06T08:58:15.000Z</time>
      </trkpt>
      <trkpt lat="46.17822" lon="6.58016">
        <ele>1917</ele>
        <time>2015-08-06T08:58:33.000Z</time>
      </trkpt>
      <trkpt lat="46.17832" lon="6.58013">
        <ele>1922</ele>
        <time>2015-08-06T08:58:49.000Z</time>
      </trkpt>
      <trkpt lat="46.17833" lon="6.58028">
        <ele>1928</ele>
        <time>2015-08-06T08:59:10.000Z</time>
      </trkpt>
      <trkpt lat="46.17827" lon="6.5804">
        <ele>1929.1313094746</ele>
        <time>2015-08-06T08:59:21.000Z</time>
      </trkpt>
      <trkpt lat="46.17821" lon="6.58053">
        <ele>1931.1399936</ele>
        <time>2015-08-06T08:59:31.000Z</time>
      </trkpt>
      <trkpt lat="46.17812" lon="6.58061">
        <ele>1934</ele>
        <time>2015-08-06T08:59:46.000Z</time>
      </trkpt>
      <trkpt lat="46.17812" lon="6.58076">
        <ele>1934</ele>
        <time>2015-08-06T08:59:58.000Z</time>
      </trkpt>
      <trkpt lat="46.17814" lon="6.58092">
        <ele>1937.5699968</ele>
        <time>2015-08-06T09:00:06.000Z</time>
      </trkpt>
      <trkpt lat="46.17805" lon="6.581">
        <ele>1939</ele>
        <time>2015-08-06T09:00:17.000Z</time>
      </trkpt>
      <trkpt lat="46.17794" lon="6.58104">
        <ele>1947</ele>
        <time>2015-08-06T09:00:37.000Z</time>
      </trkpt>
      <trkpt lat="46.178" lon="6.58116">
        <ele>1950</ele>
        <time>2015-08-06T09:00:57.000Z</time>
      </trkpt>
      <trkpt lat="46.1781" lon="6.58122">
        <ele>1957</ele>
        <time>2015-08-06T09:01:13.000Z</time>
      </trkpt>
      <trkpt lat="46.17819" lon="6.58126">
        <ele>1961</ele>
        <time>2015-08-06T09:01:40.000Z</time>
      </trkpt>
      <trkpt lat="46.17829" lon="6.58127">
        <ele>1965</ele>
        <time>2015-08-06T09:01:57.000Z</time>
      </trkpt>
      <trkpt lat="46.17838" lon="6.58132">
        <ele>1971</ele>
        <time>2015-08-06T09:02:09.000Z</time>
      </trkpt>
      <trkpt lat="46.17847" lon="6.58139">
        <ele>1973</ele>
        <time>2015-08-06T09:02:22.000Z</time>
      </trkpt>
      <trkpt lat="46.17854" lon="6.58149">
        <ele>1976.1399936</ele>
        <time>2015-08-06T09:02:36.000Z</time>
      </trkpt>
      <trkpt lat="46.17865" lon="6.58149">
        <ele>1980.5699968</ele>
        <time>2015-08-06T09:02:51.000Z</time>
      </trkpt>
      <trkpt lat="46.17875" lon="6.58153">
        <ele>1985</ele>
        <time>2015-08-06T09:03:04.000Z</time>
      </trkpt>
      <trkpt lat="46.17884" lon="6.58157">
        <ele>1988</ele>
        <time>2015-08-06T09:03:20.000Z</time>
      </trkpt>
      <trkpt lat="46.17894" lon="6.58159">
        <ele>1996</ele>
        <time>2015-08-06T09:03:45.000Z</time>
      </trkpt>
      <trkpt lat="46.17904" lon="6.58156">
        <ele>2004</ele>
        <time>2015-08-06T09:04:15.000Z</time>
      </trkpt>
      <trkpt lat="46.17914" lon="6.58155">
        <ele>2008</ele>
        <time>2015-08-06T09:04:29.000Z</time>
      </trkpt>
      <trkpt lat="46.17924" lon="6.58162">
        <ele>2013</ele>
        <time>2015-08-06T09:04:44.000Z</time>
      </trkpt>
      <trkpt lat="46.17933" lon="6.58167">
        <ele>2020.1399936</ele>
        <time>2015-08-06T09:05:06.000Z</time>
      </trkpt>
      <trkpt lat="46.17943" lon="6.5816">
        <ele>2026.5699968</ele>
        <time>2015-08-06T09:05:31.000Z</time>
      </trkpt>
      <trkpt lat="46.17953" lon="6.58159">
        <ele>2033</ele>
        <time>2015-08-06T09:05:55.000Z</time>
      </trkpt>
      <trkpt lat="46.17963" lon="6.58157">
        <ele>2044</ele>
        <time>2015-08-06T09:06:28.000Z</time>
      </trkpt>
      <trkpt lat="46.17972" lon="6.58164">
        <ele>2048.5699968</ele>
        <time>2015-08-06T09:06:46.000Z</time>
      </trkpt>
      <trkpt lat="46.17982" lon="6.58169">
        <ele>2054</ele>
        <time>2015-08-06T09:07:02.000Z</time>
      </trkpt>
      <trkpt lat="46.17991" lon="6.58175">
        <ele>2060.5699968</ele>
        <time>2015-08-06T09:07:26.000Z</time>
      </trkpt>
      <trkpt lat="46.18001" lon="6.58173">
        <ele>2064</ele>
        <time>2015-08-06T09:08:03.000Z</time>
      </trkpt>
      <trkpt lat="46.17997" lon="6.5816">
        <ele>2073</ele>
        <time>2015-08-06T09:08:32.000Z</time>
      </trkpt>
      <trkpt lat="46.17995" lon="6.58154">
        <ele>2076</ele>
        <time>2015-08-06T09:08:38.000Z</time>
      </trkpt>
      <trkpt lat="46.17992" lon="6.58144">
        <ele>2077</ele>
        <time>2015-08-06T09:08:52.000Z</time>
      </trkpt>
      <trkpt lat="46.17992" lon="6.58145">
        <ele>2077.0288755647</ele>
        <time>2015-08-06T09:08:54.000Z</time>
      </trkpt>
      <trkpt lat="46.18001" lon="6.58154">
        <ele>2087</ele>
        <time>2015-08-06T09:14:06.000Z</time>
      </trkpt>
      <trkpt lat="46.18001" lon="6.58161">
        <ele>2086</ele>
        <time>2015-08-06T09:14:13.000Z</time>
      </trkpt>
      <trkpt lat="46.18008" lon="6.58172">
        <ele>2082</ele>
        <time>2015-08-06T09:14:27.000Z</time>
      </trkpt>
      <trkpt lat="46.18" lon="6.58181">
        <ele>2077</ele>
        <time>2015-08-06T09:14:37.000Z</time>
      </trkpt>
      <trkpt lat="46.17999" lon="6.58196">
        <ele>2073</ele>
        <time>2015-08-06T09:14:54.000Z</time>
      </trkpt>
      <trkpt lat="46.18003" lon="6.5821">
        <ele>2064.4300032</ele>
        <time>2015-08-06T09:15:05.000Z</time>
      </trkpt>
      <trkpt lat="46.18005" lon="6.58225">
        <ele>2061.5699968</ele>
        <time>2015-08-06T09:15:11.000Z</time>
      </trkpt>
      <trkpt lat="46.17996" lon="6.58231">
        <ele>2058</ele>
        <time>2015-08-06T09:15:20.000Z</time>
      </trkpt>
      <trkpt lat="46.17997" lon="6.58247">
        <ele>2053.8600064</ele>
        <time>2015-08-06T09:15:28.000Z</time>
      </trkpt>
      <trkpt lat="46.17997" lon="6.58261">
        <ele>2051</ele>
        <time>2015-08-06T09:15:34.000Z</time>
      </trkpt>
      <trkpt lat="46.17997" lon="6.58277">
        <ele>2048</ele>
        <time>2015-08-06T09:15:44.000Z</time>
      </trkpt>
      <trkpt lat="46.1799" lon="6.58289">
        <ele>2046</ele>
        <time>2015-08-06T09:15:52.000Z</time>
      </trkpt>
      <trkpt lat="46.17987" lon="6.58303">
        <ele>2043</ele>
        <time>2015-08-06T09:15:59.000Z</time>
      </trkpt>
      <trkpt lat="46.17988" lon="6.58319">
        <ele>2037.5699968</ele>
        <time>2015-08-06T09:16:11.000Z</time>
      </trkpt>
      <trkpt lat="46.1799" lon="6.58334">
        <ele>2037</ele>
        <time>2015-08-06T09:16:18.000Z</time>
      </trkpt>
      <trkpt lat="46.17991" lon="6.5835">
        <ele>2034</ele>
        <time>2015-08-06T09:16:24.000Z</time>
      </trkpt>
      <trkpt lat="46.17997" lon="6.58362">
        <ele>2032</ele>
        <time>2015-08-06T09:16:30.000Z</time>
      </trkpt>
      <trkpt lat="46.17999" lon="6.58377">
        <ele>2026.4300032</ele>
        <time>2015-08-06T09:16:36.000Z</time>
      </trkpt>
      <trkpt lat="46.18004" lon="6.58391">
        <ele>2023</ele>
        <time>2015-08-06T09:16:44.000Z</time>
      </trkpt>
      <trkpt lat="46.18002" lon="6.58406">
        <ele>2019</ele>
        <time>2015-08-06T09:16:50.000Z</time>
      </trkpt>
      <trkpt lat="46.18004" lon="6.58421">
        <ele>2017.8600064</ele>
        <time>2015-08-06T09:16:56.000Z</time>
      </trkpt>
      <trkpt lat="46.18006" lon="6.58436">
        <ele>2015</ele>
        <time>2015-08-06T09:17:12.000Z</time>
      </trkpt>
      <trkpt lat="46.18006" lon="6.58451">
        <ele>2009</ele>
        <time>2015-08-06T09:17:38.000Z</time>
      </trkpt>
      <trkpt lat="46.18007" lon="6.58466">
        <ele>2003</ele>
        <time>2015-08-06T09:17:54.000Z</time>
      </trkpt>
      <trkpt lat="46.18012" lon="6.5848">
        <ele>1996.4300032</ele>
        <time>2015-08-06T09:18:07.000Z</time>
      </trkpt>
      <trkpt lat="46.18016" lon="6.58493">
        <ele>1994</ele>
        <time>2015-08-06T09:18:19.000Z</time>
      </trkpt>
      <trkpt lat="46.18019" lon="6.58508">
        <ele>1989</ele>
        <time>2015-08-06T09:18:32.000Z</time>
      </trkpt>
      <trkpt lat="46.18021" lon="6.58523">
        <ele>1986</ele>
        <time>2015-08-06T09:18:43.000Z</time>
      </trkpt>
      <trkpt lat="46.18027" lon="6.58536">
        <ele>1981</ele>
        <time>2015-08-06T09:18:58.000Z</time>
      </trkpt>
      <trkpt lat="46.18031" lon="6.58549">
        <ele>1980</ele>
        <time>2015-08-06T09:19:10.000Z</time>
      </trkpt>
      <trkpt lat="46.18035" lon="6.58563">
        <ele>1978</ele>
        <time>2015-08-06T09:19:19.000Z</time>
      </trkpt>
      <trkpt lat="46.18041" lon="6.58575">
        <ele>1971.4300032</ele>
        <time>2015-08-06T09:19:31.000Z</time>
      </trkpt>
      <trkpt lat="46.18039" lon="6.5859">
        <ele>1966.2900096</ele>
        <time>2015-08-06T09:19:41.000Z</time>
      </trkpt>
      <trkpt lat="46.18044" lon="6.58606">
        <ele>1963</ele>
        <time>2015-08-06T09:19:48.000Z</time>
      </trkpt>
      <trkpt lat="46.18051" lon="6.5862">
        <ele>1960</ele>
        <time>2015-08-06T09:19:53.000Z</time>
      </trkpt>
      <trkpt lat="46.18051" lon="6.58636">
        <ele>1958</ele>
        <time>2015-08-06T09:19:58.000Z</time>
      </trkpt>
      <trkpt lat="46.18049" lon="6.58651">
        <ele>1952.4343452627</ele>
        <time>2015-08-06T09:20:03.000Z</time>
      </trkpt>
      <trkpt lat="46.18047" lon="6.58666">
        <ele>1949.4300032</ele>
        <time>2015-08-06T09:20:08.000Z</time>
      </trkpt>
      <trkpt lat="46.18046" lon="6.58681">
        <ele>1946</ele>
        <time>2015-08-06T09:20:13.000Z</time>
      </trkpt>
      <trkpt lat="46.18048" lon="6.58698">
        <ele>1943</ele>
        <time>2015-08-06T09:20:18.000Z</time>
      </trkpt>
      <trkpt lat="46.18038" lon="6.58702">
        <ele>1939</ele>
        <time>2015-08-06T09:20:24.000Z</time>
      </trkpt>
      <trkpt lat="46.18026" lon="6.58702">
        <ele>1935</ele>
        <time>2015-08-06T09:20:29.000Z</time>
      </trkpt>
      <trkpt lat="46.18015" lon="6.58698">
        <ele>1932.4300032</ele>
        <time>2015-08-06T09:20:33.000Z</time>
      </trkpt>
      <trkpt lat="46.18005" lon="6.58694">
        <ele>1931.4300032</ele>
        <time>2015-08-06T09:20:37.000Z</time>
      </trkpt>
      <trkpt lat="46.17995" lon="6.58686">
        <ele>1927.4300032</ele>
        <time>2015-08-06T09:20:42.000Z</time>
      </trkpt>
      <trkpt lat="46.17984" lon="6.58685">
        <ele>1923.4300032</ele>
        <time>2015-08-06T09:20:48.000Z</time>
      </trkpt>
      <trkpt lat="46.17974" lon="6.58685">
        <ele>1919.8600064</ele>
        <time>2015-08-06T09:20:54.000Z</time>
      </trkpt>
      <trkpt lat="46.17964" lon="6.58682">
        <ele>1916</ele>
        <time>2015-08-06T09:21:00.000Z</time>
      </trkpt>
      <trkpt lat="46.17955" lon="6.58691">
        <ele>1910.4300032</ele>
        <time>2015-08-06T09:21:06.000Z</time>
      </trkpt>
      <trkpt lat="46.17946" lon="6.58699">
        <ele>1906.4300032</ele>
        <time>2015-08-06T09:21:10.000Z</time>
      </trkpt>
      <trkpt lat="46.17936" lon="6.58707">
        <ele>1903.4300032</ele>
        <time>2015-08-06T09:21:15.000Z</time>
      </trkpt>
      <trkpt lat="46.17926" lon="6.58709">
        <ele>1898</ele>
        <time>2015-08-06T09:21:20.000Z</time>
      </trkpt>
      <trkpt lat="46.17917" lon="6.58717">
        <ele>1894.4300032</ele>
        <time>2015-08-06T09:21:26.000Z</time>
      </trkpt>
      <trkpt lat="46.17909" lon="6.5873">
        <ele>1891.4300032</ele>
        <time>2015-08-06T09:21:31.000Z</time>
      </trkpt>
      <trkpt lat="46.17902" lon="6.58742">
        <ele>1888</ele>
        <time>2015-08-06T09:21:35.000Z</time>
      </trkpt>
      <trkpt lat="46.17896" lon="6.58753">
        <ele>1884.4300032</ele>
        <time>2015-08-06T09:21:39.000Z</time>
      </trkpt>
      <trkpt lat="46.17904" lon="6.58762">
        <ele>1880</ele>
        <time>2015-08-06T09:21:47.000Z</time>
      </trkpt>
      <trkpt lat="46.17915" lon="6.58765">
        <ele>1878</ele>
        <time>2015-08-06T09:21:54.000Z</time>
      </trkpt>
      <trkpt lat="46.17924" lon="6.58772">
        <ele>1873</ele>
        <time>2015-08-06T09:22:04.000Z</time>
      </trkpt>
      <trkpt lat="46.17933" lon="6.58782">
        <ele>1869</ele>
        <time>2015-08-06T09:22:14.000Z</time>
      </trkpt>
      <trkpt lat="46.1794" lon="6.58791">
        <ele>1864.8600064</ele>
        <time>2015-08-06T09:22:21.000Z</time>
      </trkpt>
      <trkpt lat="46.17949" lon="6.58798">
        <ele>1862.3030357882</ele>
        <time>2015-08-06T09:22:26.000Z</time>
      </trkpt>
      <trkpt lat="46.17958" lon="6.58807">
        <ele>1859.2900096</ele>
        <time>2015-08-06T09:22:31.000Z</time>
      </trkpt>
      <trkpt lat="46.17968" lon="6.58817">
        <ele>1855.4300032</ele>
        <time>2015-08-06T09:22:36.000Z</time>
      </trkpt>
      <trkpt lat="46.17978" lon="6.58825">
        <ele>1852.4300032</ele>
        <time>2015-08-06T09:22:41.000Z</time>
      </trkpt>
      <trkpt lat="46.17988" lon="6.5883">
        <ele>1850</ele>
        <time>2015-08-06T09:22:45.000Z</time>
      </trkpt>
      <trkpt lat="46.17996" lon="6.58843">
        <ele>1846.4300032</ele>
        <time>2015-08-06T09:22:51.000Z</time>
      </trkpt>
      <trkpt lat="46.18002" lon="6.58854">
        <ele>1845</ele>
        <time>2015-08-06T09:22:55.000Z</time>
      </trkpt>
      <trkpt lat="46.18013" lon="6.58864">
        <ele>1845</ele>
        <time>2015-08-06T09:23:00.000Z</time>
      </trkpt>
      <trkpt lat="46.18021" lon="6.58877">
        <ele>1844</ele>
        <time>2015-08-06T09:23:05.000Z</time>
      </trkpt>
      <trkpt lat="46.18027" lon="6.58891">
        <ele>1843</ele>
        <time>2015-08-06T09:23:09.000Z</time>
      </trkpt>
      <trkpt lat="46.18032" lon="6.58904">
        <ele>1842</ele>
        <time>2015-08-06T09:23:13.000Z</time>
      </trkpt>
      <trkpt lat="46.18038" lon="6.58917">
        <ele>1842</ele>
        <time>2015-08-06T09:23:18.000Z</time>
      </trkpt>
      <trkpt lat="46.18042" lon="6.5893">
        <ele>1837</ele>
        <time>2015-08-06T09:23:22.000Z</time>
      </trkpt>
      <trkpt lat="46.18052" lon="6.58939">
        <ele>1835.8600064</ele>
        <time>2015-08-06T09:23:26.000Z</time>
      </trkpt>
      <trkpt lat="46.18061" lon="6.58948">
        <ele>1835</ele>
        <time>2015-08-06T09:23:30.000Z</time>
      </trkpt>
      <trkpt lat="46.1807" lon="6.58958">
        <ele>1833</ele>
        <time>2015-08-06T09:23:34.000Z</time>
      </trkpt>
      <trkpt lat="46.18079" lon="6.58967">
        <ele>1832</ele>
        <time>2015-08-06T09:23:38.000Z</time>
      </trkpt>
      <trkpt lat="46.18089" lon="6.58976">
        <ele>1829</ele>
        <time>2015-08-06T09:23:42.000Z</time>
      </trkpt>
      <trkpt lat="46.18098" lon="6.58984">
        <ele>1827.2900096</ele>
        <time>2015-08-06T09:23:46.000Z</time>
      </trkpt>
      <trkpt lat="46.18106" lon="6.58992">
        <ele>1826</ele>
        <time>2015-08-06T09:23:50.000Z</time>
      </trkpt>
      <trkpt lat="46.18115" lon="6.58998">
        <ele>1819.4300032</ele>
        <time>2015-08-06T09:23:58.000Z</time>
      </trkpt>
      <trkpt lat="46.18127" lon="6.58994">
        <ele>1817</ele>
        <time>2015-08-06T09:24:08.000Z</time>
      </trkpt>
      <trkpt lat="46.18138" lon="6.58995">
        <ele>1814</ele>
        <time>2015-08-06T09:24:15.000Z</time>
      </trkpt>
      <trkpt lat="46.18147" lon="6.58989">
        <ele>1806</ele>
        <time>2015-08-06T09:24:23.000Z</time>
      </trkpt>
      <trkpt lat="46.18156" lon="6.58983">
        <ele>1802.4300032</ele>
        <time>2015-08-06T09:24:30.000Z</time>
      </trkpt>
      <trkpt lat="46.18165" lon="6.58988">
        <ele>1796</ele>
        <time>2015-08-06T09:24:44.000Z</time>
      </trkpt>
      <trkpt lat="46.18176" lon="6.5899">
        <ele>1794</ele>
        <time>2015-08-06T09:24:55.000Z</time>
      </trkpt>
      <trkpt lat="46.18186" lon="6.58988">
        <ele>1787.4300032</ele>
        <time>2015-08-06T09:25:04.000Z</time>
      </trkpt>
      <trkpt lat="46.18196" lon="6.58983">
        <ele>1783</ele>
        <time>2015-08-06T09:25:12.000Z</time>
      </trkpt>
      <trkpt lat="46.18203" lon="6.58993">
        <ele>1778</ele>
        <time>2015-08-06T09:25:22.000Z</time>
      </trkpt>
      <trkpt lat="46.18208" lon="6.59007">
        <ele>1773</ele>
        <time>2015-08-06T09:25:32.000Z</time>
      </trkpt>
      <trkpt lat="46.18217" lon="6.59014">
        <ele>1765.4300032</ele>
        <time>2015-08-06T09:25:45.000Z</time>
      </trkpt>
      <trkpt lat="46.18225" lon="6.59024">
        <ele>1763</ele>
        <time>2015-08-06T09:25:53.000Z</time>
      </trkpt>
      <trkpt lat="46.18229" lon="6.59039">
        <ele>1761</ele>
        <time>2015-08-06T09:26:00.000Z</time>
      </trkpt>
      <trkpt lat="46.18239" lon="6.59045">
        <ele>1751.4300032</ele>
        <time>2015-08-06T09:26:06.000Z</time>
      </trkpt>
      <trkpt lat="46.18249" lon="6.5905">
        <ele>1749.4300032</ele>
        <time>2015-08-06T09:26:11.000Z</time>
      </trkpt>
      <trkpt lat="46.18258" lon="6.59059">
        <ele>1747</ele>
        <time>2015-08-06T09:26:15.000Z</time>
      </trkpt>
      <trkpt lat="46.18266" lon="6.59067">
        <ele>1743.4300032</ele>
        <time>2015-08-06T09:26:19.000Z</time>
      </trkpt>
      <trkpt lat="46.18274" lon="6.59076">
        <ele>1741</ele>
        <time>2015-08-06T09:26:23.000Z</time>
      </trkpt>
      <trkpt lat="46.18279" lon="6.59089">
        <ele>1736.4300032</ele>
        <time>2015-08-06T09:26:28.000Z</time>
      </trkpt>
      <trkpt lat="46.18279" lon="6.59104">
        <ele>1733.8600064</ele>
        <time>2015-08-06T09:26:33.000Z</time>
      </trkpt>
      <trkpt lat="46.18282" lon="6.59119">
        <ele>1729.4300032</ele>
        <time>2015-08-06T09:26:40.000Z</time>
      </trkpt>
      <trkpt lat="46.18288" lon="6.59132">
        <ele>1726</ele>
        <time>2015-08-06T09:26:46.000Z</time>
      </trkpt>
      <trkpt lat="46.18296" lon="6.59145">
        <ele>1722.4300032</ele>
        <time>2015-08-06T09:26:51.000Z</time>
      </trkpt>
      <trkpt lat="46.18304" lon="6.59155">
        <ele>1720.4300032</ele>
        <time>2015-08-06T09:26:55.000Z</time>
      </trkpt>
      <trkpt lat="46.1831" lon="6.59171">
        <ele>1717.4356449446</ele>
        <time>2015-08-06T09:27:00.000Z</time>
      </trkpt>
      <trkpt lat="46.18313" lon="6.59187">
        <ele>1714</ele>
        <time>2015-08-06T09:27:05.000Z</time>
      </trkpt>
      <trkpt lat="46.18323" lon="6.59195">
        <ele>1711.4300032</ele>
        <time>2015-08-06T09:27:10.000Z</time>
      </trkpt>
      <trkpt lat="46.18333" lon="6.59202">
        <ele>1711</ele>
        <time>2015-08-06T09:27:15.000Z</time>
      </trkpt>
      <trkpt lat="46.18342" lon="6.5921">
        <ele>1709</ele>
        <time>2015-08-06T09:27:19.000Z</time>
      </trkpt>
      <trkpt lat="46.18349" lon="6.59222">
        <ele>1707</ele>
        <time>2015-08-06T09:27:24.000Z</time>
      </trkpt>
      <trkpt lat="46.18356" lon="6.59234">
        <ele>1704</ele>
        <time>2015-08-06T09:27:29.000Z</time>
      </trkpt>
      <trkpt lat="46.18361" lon="6.59249">
        <ele>1702</ele>
        <time>2015-08-06T09:27:34.000Z</time>
      </trkpt>
      <trkpt lat="46.18366" lon="6.59263">
        <ele>1699</ele>
        <time>2015-08-06T09:27:39.000Z</time>
      </trkpt>
      <trkpt lat="46.1837" lon="6.59276">
        <ele>1695.4300032</ele>
        <time>2015-08-06T09:27:44.000Z</time>
      </trkpt>
      <trkpt lat="46.18376" lon="6.59291">
        <ele>1695</ele>
        <time>2015-08-06T09:27:48.000Z</time>
      </trkpt>
      <trkpt lat="46.18387" lon="6.59296">
        <ele>1692</ele>
        <time>2015-08-06T09:27:53.000Z</time>
      </trkpt>
      <trkpt lat="46.184" lon="6.59298">
        <ele>1692</ele>
        <time>2015-08-06T09:27:57.000Z</time>
      </trkpt>
      <trkpt lat="46.18411" lon="6.59302">
        <ele>1690.2900096</ele>
        <time>2015-08-06T09:28:01.000Z</time>
      </trkpt>
      <trkpt lat="46.18422" lon="6.59315">
        <ele>1689</ele>
        <time>2015-08-06T09:28:06.000Z</time>
      </trkpt>
      <trkpt lat="46.18433" lon="6.59323">
        <ele>1688.4300032</ele>
        <time>2015-08-06T09:28:11.000Z</time>
      </trkpt>
      <trkpt lat="46.18443" lon="6.59331">
        <ele>1688</ele>
        <time>2015-08-06T09:28:15.000Z</time>
      </trkpt>
      <trkpt lat="46.18454" lon="6.59338">
        <ele>1688</ele>
        <time>2015-08-06T09:28:20.000Z</time>
      </trkpt>
      <trkpt lat="46.18466" lon="6.59343">
        <ele>1688</ele>
        <time>2015-08-06T09:28:25.000Z</time>
      </trkpt>
      <trkpt lat="46.18477" lon="6.59344">
        <ele>1688</ele>
        <time>2015-08-06T09:28:30.000Z</time>
      </trkpt>
      <trkpt lat="46.18487" lon="6.59344">
        <ele>1687</ele>
        <time>2015-08-06T09:28:35.000Z</time>
      </trkpt>
      <trkpt lat="46.18499" lon="6.59344">
        <ele>1687</ele>
        <time>2015-08-06T09:28:40.000Z</time>
      </trkpt>
      <trkpt lat="46.18508" lon="6.59349">
        <ele>1687</ele>
        <time>2015-08-06T09:28:45.000Z</time>
      </trkpt>
      <trkpt lat="46.18519" lon="6.59354">
        <ele>1687</ele>
        <time>2015-08-06T09:28:52.000Z</time>
      </trkpt>
      <trkpt lat="46.1853" lon="6.59359">
        <ele>1687</ele>
        <time>2015-08-06T09:28:58.000Z</time>
      </trkpt>
      <trkpt lat="46.18536" lon="6.59371">
        <ele>1682</ele>
        <time>2015-08-06T09:29:04.000Z</time>
      </trkpt>
      <trkpt lat="46.18541" lon="6.59384">
        <ele>1682</ele>
        <time>2015-08-06T09:29:09.000Z</time>
      </trkpt>
      <trkpt lat="46.18545" lon="6.59399">
        <ele>1678</ele>
        <time>2015-08-06T09:29:17.000Z</time>
      </trkpt>
      <trkpt lat="46.18552" lon="6.59412">
        <ele>1675.4300032</ele>
        <time>2015-08-06T09:29:26.000Z</time>
      </trkpt>
      <trkpt lat="46.18555" lon="6.5943">
        <ele>1673</ele>
        <time>2015-08-06T09:29:32.000Z</time>
      </trkpt>
      <trkpt lat="46.1856" lon="6.59442">
        <ele>1672</ele>
        <time>2015-08-06T09:29:39.000Z</time>
      </trkpt>
      <trkpt lat="46.1857" lon="6.59446">
        <ele>1669</ele>
        <time>2015-08-06T09:29:44.000Z</time>
      </trkpt>
      <trkpt lat="46.18583" lon="6.5945">
        <ele>1668</ele>
        <time>2015-08-06T09:29:50.000Z</time>
      </trkpt>
      <trkpt lat="46.18593" lon="6.59454">
        <ele>1663.2900096</ele>
        <time>2015-08-06T09:29:56.000Z</time>
      </trkpt>
      <trkpt lat="46.18604" lon="6.59457">
        <ele>1660.2900096</ele>
        <time>2015-08-06T09:30:01.000Z</time>
      </trkpt>
      <trkpt lat="46.18616" lon="6.5946">
        <ele>1656.2900096</ele>
        <time>2015-08-06T09:30:06.000Z</time>
      </trkpt>
      <trkpt lat="46.18625" lon="6.59454">
        <ele>1651.4300032</ele>
        <time>2015-08-06T09:30:13.000Z</time>
      </trkpt>
      <trkpt lat="46.18635" lon="6.5944">
        <ele>1648</ele>
        <time>2015-08-06T09:30:19.000Z</time>
      </trkpt>
      <trkpt lat="46.1864" lon="6.59425">
        <ele>1642.4300032</ele>
        <time>2015-08-06T09:30:25.000Z</time>
      </trkpt>
      <trkpt lat="46.18649" lon="6.59417">
        <ele>1639.4300032</ele>
        <time>2015-08-06T09:30:29.000Z</time>
      </trkpt>
      <trkpt lat="46.18662" lon="6.59415">
        <ele>1637.4300032</ele>
        <time>2015-08-06T09:30:33.000Z</time>
      </trkpt>
      <trkpt lat="46.18672" lon="6.59412">
        <ele>1636.5699968</ele>
        <time>2015-08-06T09:30:36.000Z</time>
      </trkpt>
      <trkpt lat="46.18687" lon="6.59411">
        <ele>1634.4343452627</ele>
        <time>2015-08-06T09:30:41.000Z</time>
      </trkpt>
      <trkpt lat="46.18698" lon="6.59408">
        <ele>1632</ele>
        <time>2015-08-06T09:30:47.000Z</time>
      </trkpt>
      <trkpt lat="46.18709" lon="6.59411">
        <ele>1629</ele>
        <time>2015-08-06T09:30:53.000Z</time>
      </trkpt>
      <trkpt lat="46.18719" lon="6.59413">
        <ele>1628</ele>
        <time>2015-08-06T09:30:57.000Z</time>
      </trkpt>
      <trkpt lat="46.18729" lon="6.59417">
        <ele>1625</ele>
        <time>2015-08-06T09:31:02.000Z</time>
      </trkpt>
      <trkpt lat="46.1874" lon="6.59416">
        <ele>1625</ele>
        <time>2015-08-06T09:31:07.000Z</time>
      </trkpt>
      <trkpt lat="46.18751" lon="6.59415">
        <ele>1624.4300032</ele>
        <time>2015-08-06T09:31:11.000Z</time>
      </trkpt>
      <trkpt lat="46.18762" lon="6.59416">
        <ele>1624</ele>
        <time>2015-08-06T09:31:15.000Z</time>
      </trkpt>
      <trkpt lat="46.18774" lon="6.59418">
        <ele>1624</ele>
        <time>2015-08-06T09:31:20.000Z</time>
      </trkpt>
      <trkpt lat="46.18784" lon="6.5942">
        <ele>1621</ele>
        <time>2015-08-06T09:31:24.000Z</time>
      </trkpt>
      <trkpt lat="46.18794" lon="6.59422">
        <ele>1618</ele>
        <time>2015-08-06T09:31:28.000Z</time>
      </trkpt>
      <trkpt lat="46.18805" lon="6.59424">
        <ele>1617</ele>
        <time>2015-08-06T09:31:32.000Z</time>
      </trkpt>
      <trkpt lat="46.18816" lon="6.59422">
        <ele>1615.2900096</ele>
        <time>2015-08-06T09:31:36.000Z</time>
      </trkpt>
      <trkpt lat="46.18827" lon="6.59421">
        <ele>1614</ele>
        <time>2015-08-06T09:31:40.000Z</time>
      </trkpt>
      <trkpt lat="46.18838" lon="6.59422">
        <ele>1612</ele>
        <time>2015-08-06T09:31:44.000Z</time>
      </trkpt>
      <trkpt lat="46.18848" lon="6.59422">
        <ele>1609</ele>
        <time>2015-08-06T09:31:48.000Z</time>
      </trkpt>
      <trkpt lat="46.1886" lon="6.59421">
        <ele>1604.4300032</ele>
        <time>2015-08-06T09:31:53.000Z</time>
      </trkpt>
      <trkpt lat="46.1887" lon="6.5942">
        <ele>1602.4300032</ele>
        <time>2015-08-06T09:31:57.000Z</time>
      </trkpt>
      <trkpt lat="46.18881" lon="6.59418">
        <ele>1600.4300032</ele>
        <time>2015-08-06T09:32:01.000Z</time>
      </trkpt>
      <trkpt lat="46.18893" lon="6.59421">
        <ele>1598.5699968</ele>
        <time>2015-08-06T09:32:05.000Z</time>
      </trkpt>
      <trkpt lat="46.18903" lon="6.59426">
        <ele>1597.5699968</ele>
        <time>2015-08-06T09:32:09.000Z</time>
      </trkpt>
      <trkpt lat="46.18912" lon="6.59432">
        <ele>1597</ele>
        <time>2015-08-06T09:32:13.000Z</time>
      </trkpt>
      <trkpt lat="46.18923" lon="6.59438">
        <ele>1595</ele>
        <time>2015-08-06T09:32:18.000Z</time>
      </trkpt>
      <trkpt lat="46.18932" lon="6.59441">
        <ele>1594</ele>
        <time>2015-08-06T09:32:24.000Z</time>
      </trkpt>
      <trkpt lat="46.18929" lon="6.59449">
        <ele>1595</ele>
        <time>2015-08-06T09:36:02.000Z</time>
      </trkpt>
      <trkpt lat="46.18937" lon="6.59451">
        <ele>1594</ele>
        <time>2015-08-06T09:36:14.000Z</time>
      </trkpt>
      <trkpt lat="46.18947" lon="6.59452">
        <ele>1592</ele>
        <time>2015-08-06T09:36:23.000Z</time>
      </trkpt>
      <trkpt lat="46.18948" lon="6.59453">
        <ele>1592</ele>
        <time>2015-08-06T09:37:50.000Z</time>
      </trkpt>
      <trkpt lat="46.18952" lon="6.59455">
        <ele>1591</ele>
        <time>2015-08-06T09:39:22.000Z</time>
      </trkpt>
      <trkpt lat="46.18959" lon="6.59452">
        <ele>1591</ele>
        <time>2015-08-06T09:39:29.000Z</time>
      </trkpt>
      <trkpt lat="46.18967" lon="6.59452">
        <ele>1589</ele>
        <time>2015-08-06T09:39:36.000Z</time>
      </trkpt>
      <trkpt lat="46.18977" lon="6.5945">
        <ele>1587</ele>
        <time>2015-08-06T09:39:45.000Z</time>
      </trkpt>
      <trkpt lat="46.18987" lon="6.59446">
        <ele>1585</ele>
        <time>2015-08-06T09:40:00.000Z</time>
      </trkpt>
      <trkpt lat="46.18997" lon="6.59444">
        <ele>1583</ele>
        <time>2015-08-06T09:40:16.000Z</time>
      </trkpt>
      <trkpt lat="46.19007" lon="6.59442">
        <ele>1582</ele>
        <time>2015-08-06T09:40:26.000Z</time>
      </trkpt>
      <trkpt lat="46.19017" lon="6.59439">
        <ele>1579</ele>
        <time>2015-08-06T09:40:35.000Z</time>
      </trkpt>
      <trkpt lat="46.19027" lon="6.59439">
        <ele>1577</ele>
        <time>2015-08-06T09:40:44.000Z</time>
      </trkpt>
      <trkpt lat="46.19038" lon="6.59439">
        <ele>1575</ele>
        <time>2015-08-06T09:40:52.000Z</time>
      </trkpt>
      <trkpt lat="46.19049" lon="6.59437">
        <ele>1575</ele>
        <time>2015-08-06T09:40:59.000Z</time>
      </trkpt>
      <trkpt lat="46.19059" lon="6.59433">
        <ele>1570.8600064</ele>
        <time>2015-08-06T09:41:06.000Z</time>
      </trkpt>
      <trkpt lat="46.1907" lon="6.59437">
        <ele>1567</ele>
        <time>2015-08-06T09:41:13.000Z</time>
      </trkpt>
      <trkpt lat="46.1908" lon="6.59442">
        <ele>1566</ele>
        <time>2015-08-06T09:41:20.000Z</time>
      </trkpt>
      <trkpt lat="46.1909" lon="6.59439">
        <ele>1561</ele>
        <time>2015-08-06T09:41:27.000Z</time>
      </trkpt>
      <trkpt lat="46.19102" lon="6.59442">
        <ele>1559</ele>
        <time>2015-08-06T09:41:33.000Z</time>
      </trkpt>
      <trkpt lat="46.19111" lon="6.59452">
        <ele>1556</ele>
        <time>2015-08-06T09:41:37.000Z</time>
      </trkpt>
      <trkpt lat="46.19119" lon="6.59464">
        <ele>1554</ele>
        <time>2015-08-06T09:41:43.000Z</time>
      </trkpt>
      <trkpt lat="46.19128" lon="6.59474">
        <ele>1552.2900096</ele>
        <time>2015-08-06T09:41:51.000Z</time>
      </trkpt>
      <trkpt lat="46.19136" lon="6.59483">
        <ele>1549</ele>
        <time>2015-08-06T09:41:57.000Z</time>
      </trkpt>
      <trkpt lat="46.19146" lon="6.59492">
        <ele>1546.5699968</ele>
        <time>2015-08-06T09:42:03.000Z</time>
      </trkpt>
      <trkpt lat="46.19156" lon="6.59498">
        <ele>1544.4300032</ele>
        <time>2015-08-06T09:42:07.000Z</time>
      </trkpt>
      <trkpt lat="46.19166" lon="6.59507">
        <ele>1543</ele>
        <time>2015-08-06T09:42:12.000Z</time>
      </trkpt>
      <trkpt lat="46.19177" lon="6.59511">
        <ele>1542</ele>
        <time>2015-08-06T09:42:17.000Z</time>
      </trkpt>
      <trkpt lat="46.19188" lon="6.59517">
        <ele>1541</ele>
        <time>2015-08-06T09:42:23.000Z</time>
      </trkpt>
      <trkpt lat="46.19198" lon="6.59526">
        <ele>1541</ele>
        <time>2015-08-06T09:42:28.000Z</time>
      </trkpt>
      <trkpt lat="46.19207" lon="6.59534">
        <ele>1538</ele>
        <time>2015-08-06T09:42:33.000Z</time>
      </trkpt>
      <trkpt lat="46.19216" lon="6.59543">
        <ele>1536</ele>
        <time>2015-08-06T09:42:37.000Z</time>
      </trkpt>
      <trkpt lat="46.19226" lon="6.59548">
        <ele>1533</ele>
        <time>2015-08-06T09:42:42.000Z</time>
      </trkpt>
      <trkpt lat="46.19237" lon="6.5955">
        <ele>1532.4300032</ele>
        <time>2015-08-06T09:42:46.000Z</time>
      </trkpt>
      <trkpt lat="46.19246" lon="6.59556">
        <ele>1530</ele>
        <time>2015-08-06T09:42:52.000Z</time>
      </trkpt>
      <trkpt lat="46.19257" lon="6.59561">
        <ele>1526</ele>
        <time>2015-08-06T09:43:03.000Z</time>
      </trkpt>
      <trkpt lat="46.19268" lon="6.59563">
        <ele>1525</ele>
        <time>2015-08-06T09:43:10.000Z</time>
      </trkpt>
      <trkpt lat="46.1928" lon="6.59564">
        <ele>1521</ele>
        <time>2015-08-06T09:43:17.000Z</time>
      </trkpt>
      <trkpt lat="46.19291" lon="6.59565">
        <ele>1519</ele>
        <time>2015-08-06T09:43:23.000Z</time>
      </trkpt>
      <trkpt lat="46.19303" lon="6.5957">
        <ele>1515</ele>
        <time>2015-08-06T09:43:28.000Z</time>
      </trkpt>
      <trkpt lat="46.19312" lon="6.59578">
        <ele>1514</ele>
        <time>2015-08-06T09:43:35.000Z</time>
      </trkpt>
      <trkpt lat="46.19323" lon="6.59584">
        <ele>1511</ele>
        <time>2015-08-06T09:43:40.000Z</time>
      </trkpt>
      <trkpt lat="46.19331" lon="6.59594">
        <ele>1509</ele>
        <time>2015-08-06T09:43:45.000Z</time>
      </trkpt>
      <trkpt lat="46.19335" lon="6.59608">
        <ele>1506.4300032</ele>
        <time>2015-08-06T09:43:51.000Z</time>
      </trkpt>
      <trkpt lat="46.19342" lon="6.5962">
        <ele>1504</ele>
        <time>2015-08-06T09:43:57.000Z</time>
      </trkpt>
      <trkpt lat="46.1935" lon="6.59628">
        <ele>1502</ele>
        <time>2015-08-06T09:44:05.000Z</time>
      </trkpt>
      <trkpt lat="46.1936" lon="6.59632">
        <ele>1498</ele>
        <time>2015-08-06T09:44:14.000Z</time>
      </trkpt>
      <trkpt lat="46.1937" lon="6.59636">
        <ele>1495</ele>
        <time>2015-08-06T09:44:22.000Z</time>
      </trkpt>
      <trkpt lat="46.19379" lon="6.59643">
        <ele>1493</ele>
        <time>2015-08-06T09:44:30.000Z</time>
      </trkpt>
      <trkpt lat="46.19389" lon="6.59639">
        <ele>1486.4300032</ele>
        <time>2015-08-06T09:44:37.000Z</time>
      </trkpt>
      <trkpt lat="46.19398" lon="6.59631">
        <ele>1482</ele>
        <time>2015-08-06T09:44:43.000Z</time>
      </trkpt>
      <trkpt lat="46.1941" lon="6.59628">
        <ele>1481</ele>
        <time>2015-08-06T09:44:49.000Z</time>
      </trkpt>
      <trkpt lat="46.1942" lon="6.59626">
        <ele>1480</ele>
        <time>2015-08-06T09:44:55.000Z</time>
      </trkpt>
      <trkpt lat="46.1943" lon="6.59627">
        <ele>1477</ele>
        <time>2015-08-06T09:45:02.000Z</time>
      </trkpt>
      <trkpt lat="46.19441" lon="6.59629">
        <ele>1476</ele>
        <time>2015-08-06T09:45:08.000Z</time>
      </trkpt>
      <trkpt lat="46.19452" lon="6.59634">
        <ele>1474</ele>
        <time>2015-08-06T09:45:14.000Z</time>
      </trkpt>
      <trkpt lat="46.19463" lon="6.59636">
        <ele>1472</ele>
        <time>2015-08-06T09:45:20.000Z</time>
      </trkpt>
      <trkpt lat="46.19474" lon="6.59641">
        <ele>1468</ele>
        <time>2015-08-06T09:45:27.000Z</time>
      </trkpt>
      <trkpt lat="46.19484" lon="6.59644">
        <ele>1465</ele>
        <time>2015-08-06T09:45:33.000Z</time>
      </trkpt>
      <trkpt lat="46.19494" lon="6.59644">
        <ele>1464</ele>
        <time>2015-08-06T09:45:38.000Z</time>
      </trkpt>
      <trkpt lat="46.19505" lon="6.59645">
        <ele>1462</ele>
        <time>2015-08-06T09:45:44.000Z</time>
      </trkpt>
      <trkpt lat="46.19514" lon="6.59651">
        <ele>1460</ele>
        <time>2015-08-06T09:45:50.000Z</time>
      </trkpt>
      <trkpt lat="46.19523" lon="6.59658">
        <ele>1452</ele>
        <time>2015-08-06T09:46:09.000Z</time>
      </trkpt>
      <trkpt lat="46.19532" lon="6.59665">
        <ele>1451</ele>
        <time>2015-08-06T09:46:14.000Z</time>
      </trkpt>
      <trkpt lat="46.19541" lon="6.59673">
        <ele>1449</ele>
        <time>2015-08-06T09:46:19.000Z</time>
      </trkpt>
      <trkpt lat="46.19548" lon="6.59684">
        <ele>1445.4300032</ele>
        <time>2015-08-06T09:46:22.000Z</time>
      </trkpt>
      <trkpt lat="46.19555" lon="6.59697">
        <ele>1442.4300032</ele>
        <time>2015-08-06T09:46:27.000Z</time>
      </trkpt>
      <trkpt lat="46.19564" lon="6.59703">
        <ele>1440.4300032</ele>
        <time>2015-08-06T09:46:36.000Z</time>
      </trkpt>
      <trkpt lat="46.19575" lon="6.597">
        <ele>1437</ele>
        <time>2015-08-06T09:46:43.000Z</time>
      </trkpt>
      <trkpt lat="46.19586" lon="6.59701">
        <ele>1435</ele>
        <time>2015-08-06T09:46:50.000Z</time>
      </trkpt>
      <trkpt lat="46.19597" lon="6.59701">
        <ele>1434</ele>
        <time>2015-08-06T09:46:55.000Z</time>
      </trkpt>
      <trkpt lat="46.19607" lon="6.59701">
        <ele>1434</ele>
        <time>2015-08-06T09:47:00.000Z</time>
      </trkpt>
      <trkpt lat="46.19618" lon="6.597">
        <ele>1429.4300032</ele>
        <time>2015-08-06T09:47:06.000Z</time>
      </trkpt>
      <trkpt lat="46.19629" lon="6.59702">
        <ele>1426</ele>
        <time>2015-08-06T09:47:12.000Z</time>
      </trkpt>
      <trkpt lat="46.19639" lon="6.59705">
        <ele>1424</ele>
        <time>2015-08-06T09:47:17.000Z</time>
      </trkpt>
      <trkpt lat="46.19651" lon="6.59708">
        <ele>1422</ele>
        <time>2015-08-06T09:47:22.000Z</time>
      </trkpt>
      <trkpt lat="46.19661" lon="6.59706">
        <ele>1420.8600064</ele>
        <time>2015-08-06T09:47:26.000Z</time>
      </trkpt>
      <trkpt lat="46.19672" lon="6.59705">
        <ele>1418</ele>
        <time>2015-08-06T09:47:32.000Z</time>
      </trkpt>
      <trkpt lat="46.19683" lon="6.59702">
        <ele>1414</ele>
        <time>2015-08-06T09:47:37.000Z</time>
      </trkpt>
      <trkpt lat="46.19694" lon="6.59701">
        <ele>1408.4300032</ele>
        <time>2015-08-06T09:47:44.000Z</time>
      </trkpt>
      <trkpt lat="46.19704" lon="6.59701">
        <ele>1404.4300032</ele>
        <time>2015-08-06T09:47:49.000Z</time>
      </trkpt>
      <trkpt lat="46.19715" lon="6.59698">
        <ele>1402</ele>
        <time>2015-08-06T09:47:54.000Z</time>
      </trkpt>
      <trkpt lat="46.19727" lon="6.59694">
        <ele>1399.5699968</ele>
        <time>2015-08-06T09:47:59.000Z</time>
      </trkpt>
      <trkpt lat="46.19739" lon="6.59692">
        <ele>1397.4300032</ele>
        <time>2015-08-06T09:48:03.000Z</time>
      </trkpt>
      <trkpt lat="46.1975" lon="6.59694">
        <ele>1395.5699968</ele>
        <time>2015-08-06T09:48:07.000Z</time>
      </trkpt>
      <trkpt lat="46.19761" lon="6.59698">
        <ele>1393.4300032</ele>
        <time>2015-08-06T09:48:11.000Z</time>
      </trkpt>
      <trkpt lat="46.19773" lon="6.59695">
        <ele>1393</ele>
        <time>2015-08-06T09:48:15.000Z</time>
      </trkpt>
      <trkpt lat="46.19784" lon="6.59689">
        <ele>1392</ele>
        <time>2015-08-06T09:48:18.000Z</time>
      </trkpt>
      <trkpt lat="46.19796" lon="6.59681">
        <ele>1389</ele>
        <time>2015-08-06T09:48:22.000Z</time>
      </trkpt>
      <trkpt lat="46.19805" lon="6.59672">
        <ele>1387.2900096</ele>
        <time>2015-08-06T09:48:26.000Z</time>
      </trkpt>
      <trkpt lat="46.19812" lon="6.59662">
        <ele>1386</ele>
        <time>2015-08-06T09:48:30.000Z</time>
      </trkpt>
      <trkpt lat="46.19823" lon="6.59652">
        <ele>1379.4300032</ele>
        <time>2015-08-06T09:48:34.000Z</time>
      </trkpt>
      <trkpt lat="46.1983" lon="6.59643">
        <ele>1377</ele>
        <time>2015-08-06T09:48:37.000Z</time>
      </trkpt>
      <trkpt lat="46.19831" lon="6.59626">
        <ele>1373</ele>
        <time>2015-08-06T09:48:42.000Z</time>
      </trkpt>
      <trkpt lat="46.19827" lon="6.59612">
        <ele>1371</ele>
        <time>2015-08-06T09:48:47.000Z</time>
      </trkpt>
      <trkpt lat="46.19826" lon="6.59595">
        <ele>1366</ele>
        <time>2015-08-06T09:48:54.000Z</time>
      </trkpt>
      <trkpt lat="46.19821" lon="6.5958">
        <ele>1361.4300032</ele>
        <time>2015-08-06T09:48:58.000Z</time>
      </trkpt>
      <trkpt lat="46.19816" lon="6.59566">
        <ele>1359</ele>
        <time>2015-08-06T09:49:02.000Z</time>
      </trkpt>
      <trkpt lat="46.19817" lon="6.59549">
        <ele>1355</ele>
        <time>2015-08-06T09:49:07.000Z</time>
      </trkpt>
      <trkpt lat="46.19818" lon="6.59534">
        <ele>1353.4300032</ele>
        <time>2015-08-06T09:49:12.000Z</time>
      </trkpt>
      <trkpt lat="46.19826" lon="6.5952">
        <ele>1351</ele>
        <time>2015-08-06T09:49:16.000Z</time>
      </trkpt>
      <trkpt lat="46.19834" lon="6.59509">
        <ele>1349</ele>
        <time>2015-08-06T09:49:21.000Z</time>
      </trkpt>
      <trkpt lat="46.19844" lon="6.59503">
        <ele>1346</ele>
        <time>2015-08-06T09:49:27.000Z</time>
      </trkpt>
      <trkpt lat="46.19847" lon="6.59488">
        <ele>1344.4300032</ele>
        <time>2015-08-06T09:49:36.000Z</time>
      </trkpt>
      <trkpt lat="46.1985" lon="6.59472">
        <ele>1344</ele>
        <time>2015-08-06T09:49:40.000Z</time>
      </trkpt>
      <trkpt lat="46.19857" lon="6.5946">
        <ele>1344</ele>
        <time>2015-08-06T09:49:43.000Z</time>
      </trkpt>
      <trkpt lat="46.19864" lon="6.59449">
        <ele>1344</ele>
        <time>2015-08-06T09:49:47.000Z</time>
      </trkpt>
      <trkpt lat="46.19871" lon="6.59434">
        <ele>1344</ele>
        <time>2015-08-06T09:49:52.000Z</time>
      </trkpt>
      <trkpt lat="46.19875" lon="6.5942">
        <ele>1344</ele>
        <time>2015-08-06T09:49:56.000Z</time>
      </trkpt>
      <trkpt lat="46.1988" lon="6.59407">
        <ele>1344</ele>
        <time>2015-08-06T09:50:00.000Z</time>
      </trkpt>
      <trkpt lat="46.19883" lon="6.59391">
        <ele>1343</ele>
        <time>2015-08-06T09:50:06.000Z</time>
      </trkpt>
      <trkpt lat="46.1988" lon="6.59376">
        <ele>1341.8600064</ele>
        <time>2015-08-06T09:50:11.000Z</time>
      </trkpt>
      <trkpt lat="46.19879" lon="6.5936">
        <ele>1341</ele>
        <time>2015-08-06T09:50:16.000Z</time>
      </trkpt>
      <trkpt lat="46.19881" lon="6.59345">
        <ele>1338.150016</ele>
        <time>2015-08-06T09:50:21.000Z</time>
      </trkpt>
      <trkpt lat="46.19884" lon="6.59329">
        <ele>1333</ele>
        <time>2015-08-06T09:50:26.000Z</time>
      </trkpt>
      <trkpt lat="46.19888" lon="6.59316">
        <ele>1330</ele>
        <time>2015-08-06T09:50:30.000Z</time>
      </trkpt>
      <trkpt lat="46.19891" lon="6.59301">
        <ele>1328</ele>
        <time>2015-08-06T09:50:35.000Z</time>
      </trkpt>
      <trkpt lat="46.19899" lon="6.59288">
        <ele>1325.4300032</ele>
        <time>2015-08-06T09:50:40.000Z</time>
      </trkpt>
      <trkpt lat="46.19906" lon="6.59276">
        <ele>1325</ele>
        <time>2015-08-06T09:50:44.000Z</time>
      </trkpt>
      <trkpt lat="46.19912" lon="6.59262">
        <ele>1324</ele>
        <time>2015-08-06T09:50:48.000Z</time>
      </trkpt>
      <trkpt lat="46.19919" lon="6.59251">
        <ele>1321</ele>
        <time>2015-08-06T09:50:52.000Z</time>
      </trkpt>
      <trkpt lat="46.19927" lon="6.59238">
        <ele>1318</ele>
        <time>2015-08-06T09:50:57.000Z</time>
      </trkpt>
      <trkpt lat="46.19934" lon="6.59226">
        <ele>1316.3030357882</ele>
        <time>2015-08-06T09:51:01.000Z</time>
      </trkpt>
      <trkpt lat="46.19945" lon="6.59218">
        <ele>1314</ele>
        <time>2015-08-06T09:51:06.000Z</time>
      </trkpt>
      <trkpt lat="46.19955" lon="6.59213">
        <ele>1312</ele>
        <time>2015-08-06T09:51:11.000Z</time>
      </trkpt>
      <trkpt lat="46.19966" lon="6.59203">
        <ele>1312</ele>
        <time>2015-08-06T09:51:15.000Z</time>
      </trkpt>
      <trkpt lat="46.19977" lon="6.59191">
        <ele>1310</ele>
        <time>2015-08-06T09:51:19.000Z</time>
      </trkpt>
      <trkpt lat="46.19978" lon="6.59177">
        <ele>1308</ele>
        <time>2015-08-06T09:51:24.000Z</time>
      </trkpt>
      <trkpt lat="46.19972" lon="6.59164">
        <ele>1307</ele>
        <time>2015-08-06T09:51:29.000Z</time>
      </trkpt>
      <trkpt lat="46.19962" lon="6.59156">
        <ele>1305.8600064</ele>
        <time>2015-08-06T09:51:31.000Z</time>
      </trkpt>
      <trkpt lat="46.19955" lon="6.59146">
        <ele>1305</ele>
        <time>2015-08-06T09:51:34.000Z</time>
      </trkpt>
      <trkpt lat="46.19947" lon="6.59134">
        <ele>1303</ele>
        <time>2015-08-06T09:51:38.000Z</time>
      </trkpt>
      <trkpt lat="46.19939" lon="6.59123">
        <ele>1301</ele>
        <time>2015-08-06T09:51:42.000Z</time>
      </trkpt>
      <trkpt lat="46.19932" lon="6.59112">
        <ele>1299.2900096</ele>
        <time>2015-08-06T09:51:46.000Z</time>
      </trkpt>
      <trkpt lat="46.19924" lon="6.59101">
        <ele>1298</ele>
        <time>2015-08-06T09:51:50.000Z</time>
      </trkpt>
      <trkpt lat="46.19916" lon="6.5909">
        <ele>1297</ele>
        <time>2015-08-06T09:51:54.000Z</time>
      </trkpt>
      <trkpt lat="46.19906" lon="6.59081">
        <ele>1294</ele>
        <time>2015-08-06T09:51:58.000Z</time>
      </trkpt>
      <trkpt lat="46.19896" lon="6.59076">
        <ele>1292</ele>
        <time>2015-08-06T09:52:02.000Z</time>
      </trkpt>
      <trkpt lat="46.19886" lon="6.5907">
        <ele>1291</ele>
        <time>2015-08-06T09:52:06.000Z</time>
      </trkpt>
      <trkpt lat="46.19876" lon="6.59063">
        <ele>1289</ele>
        <time>2015-08-06T09:52:11.000Z</time>
      </trkpt>
      <trkpt lat="46.19866" lon="6.59063">
        <ele>1288.4300032</ele>
        <time>2015-08-06T09:52:16.000Z</time>
      </trkpt>
      <trkpt lat="46.19855" lon="6.59063">
        <ele>1286</ele>
        <time>2015-08-06T09:52:22.000Z</time>
      </trkpt>
      <trkpt lat="46.19843" lon="6.59065">
        <ele>1285</ele>
        <time>2015-08-06T09:52:27.000Z</time>
      </trkpt>
      <trkpt lat="46.19843" lon="6.59047">
        <ele>1285</ele>
        <time>2015-08-06T09:52:33.000Z</time>
      </trkpt>
      <trkpt lat="46.19845" lon="6.59032">
        <ele>1285</ele>
        <time>2015-08-06T09:52:37.000Z</time>
      </trkpt>
      <trkpt lat="46.19848" lon="6.59016">
        <ele>1286</ele>
        <time>2015-08-06T09:52:42.000Z</time>
      </trkpt>
      <trkpt lat="46.19853" lon="6.59">
        <ele>1286</ele>
        <time>2015-08-06T09:52:47.000Z</time>
      </trkpt>
      <trkpt lat="46.19858" lon="6.58988">
        <ele>1288</ele>
        <time>2015-08-06T09:52:52.000Z</time>
      </trkpt>
      <trkpt lat="46.19864" lon="6.58972">
        <ele>1288</ele>
        <time>2015-08-06T09:52:57.000Z</time>
      </trkpt>
      <trkpt lat="46.19872" lon="6.58958">
        <ele>1289</ele>
        <time>2015-08-06T09:53:02.000Z</time>
      </trkpt>
      <trkpt lat="46.19881" lon="6.58948">
        <ele>1289</ele>
        <time>2015-08-06T09:53:06.000Z</time>
      </trkpt>
      <trkpt lat="46.19889" lon="6.58935">
        <ele>1289</ele>
        <time>2015-08-06T09:53:11.000Z</time>
      </trkpt>
      <trkpt lat="46.19896" lon="6.58921">
        <ele>1289</ele>
        <time>2015-08-06T09:53:16.000Z</time>
      </trkpt>
      <trkpt lat="46.19903" lon="6.58908">
        <ele>1289</ele>
        <time>2015-08-06T09:53:21.000Z</time>
      </trkpt>
      <trkpt lat="46.19911" lon="6.58895">
        <ele>1289</ele>
        <time>2015-08-06T09:53:26.000Z</time>
      </trkpt>
      <trkpt lat="46.19919" lon="6.58881">
        <ele>1288.4300032</ele>
        <time>2015-08-06T09:53:31.000Z</time>
      </trkpt>
      <trkpt lat="46.19924" lon="6.58868">
        <ele>1288</ele>
        <time>2015-08-06T09:53:35.000Z</time>
      </trkpt>
      <trkpt lat="46.1993" lon="6.58855">
        <ele>1288</ele>
        <time>2015-08-06T09:53:39.000Z</time>
      </trkpt>
      <trkpt lat="46.19936" lon="6.58841">
        <ele>1285</ele>
        <time>2015-08-06T09:53:43.000Z</time>
      </trkpt>
      <trkpt lat="46.19941" lon="6.58827">
        <ele>1284</ele>
        <time>2015-08-06T09:53:47.000Z</time>
      </trkpt>
      <trkpt lat="46.19946" lon="6.58815">
        <ele>1284</ele>
        <time>2015-08-06T09:53:51.000Z</time>
      </trkpt>
      <trkpt lat="46.19952" lon="6.588">
        <ele>1284</ele>
        <time>2015-08-06T09:53:55.000Z</time>
      </trkpt>
      <trkpt lat="46.19958" lon="6.58785">
        <ele>1284</ele>
        <time>2015-08-06T09:53:59.000Z</time>
      </trkpt>
      <trkpt lat="46.19961" lon="6.58771">
        <ele>1281</ele>
        <time>2015-08-06T09:54:03.000Z</time>
      </trkpt>
      <trkpt lat="46.19965" lon="6.58757">
        <ele>1281</ele>
        <time>2015-08-06T09:54:07.000Z</time>
      </trkpt>
      <trkpt lat="46.19969" lon="6.58741">
        <ele>1280.4300032</ele>
        <time>2015-08-06T09:54:11.000Z</time>
      </trkpt>
      <trkpt lat="46.19974" lon="6.58726">
        <ele>1280</ele>
        <time>2015-08-06T09:54:15.000Z</time>
      </trkpt>
      <trkpt lat="46.19977" lon="6.5871">
        <ele>1280</ele>
        <time>2015-08-06T09:54:19.000Z</time>
      </trkpt>
      <trkpt lat="46.19981" lon="6.58695">
        <ele>1279</ele>
        <time>2015-08-06T09:54:23.000Z</time>
      </trkpt>
      <trkpt lat="46.19985" lon="6.5868">
        <ele>1279</ele>
        <time>2015-08-06T09:54:27.000Z</time>
      </trkpt>
      <trkpt lat="46.19992" lon="6.58668">
        <ele>1278.4300032</ele>
        <time>2015-08-06T09:54:31.000Z</time>
      </trkpt>
      <trkpt lat="46.19999" lon="6.58656">
        <ele>1278</ele>
        <time>2015-08-06T09:54:35.000Z</time>
      </trkpt>
      <trkpt lat="46.2001" lon="6.58648">
        <ele>1278</ele>
        <time>2015-08-06T09:54:39.000Z</time>
      </trkpt>
      <trkpt lat="46.20019" lon="6.58636">
        <ele>1277</ele>
        <time>2015-08-06T09:54:45.000Z</time>
      </trkpt>
      <trkpt lat="46.20029" lon="6.58631">
        <ele>1277</ele>
        <time>2015-08-06T09:54:49.000Z</time>
      </trkpt>
      <trkpt lat="46.2004" lon="6.58632">
        <ele>1276</ele>
        <time>2015-08-06T09:54:55.000Z</time>
      </trkpt>
      <trkpt lat="46.20051" lon="6.5863">
        <ele>1276</ele>
        <time>2015-08-06T09:55:00.000Z</time>
      </trkpt>
      <trkpt lat="46.20061" lon="6.58625">
        <ele>1276</ele>
        <time>2015-08-06T09:55:05.000Z</time>
      </trkpt>
      <trkpt lat="46.20071" lon="6.58619">
        <ele>1276</ele>
        <time>2015-08-06T09:55:09.000Z</time>
      </trkpt>
      <trkpt lat="46.20082" lon="6.5861">
        <ele>1277</ele>
        <time>2015-08-06T09:55:12.000Z</time>
      </trkpt>
      <trkpt lat="46.20093" lon="6.58601">
        <ele>1277</ele>
        <time>2015-08-06T09:55:15.000Z</time>
      </trkpt>
      <trkpt lat="46.20102" lon="6.58591">
        <ele>1277</ele>
        <time>2015-08-06T09:55:19.000Z</time>
      </trkpt>
      <trkpt lat="46.20111" lon="6.58581">
        <ele>1277</ele>
        <time>2015-08-06T09:55:23.000Z</time>
      </trkpt>
      <trkpt lat="46.2012" lon="6.58574">
        <ele>1277</ele>
        <time>2015-08-06T09:55:27.000Z</time>
      </trkpt>
      <trkpt lat="46.20128" lon="6.58564">
        <ele>1277</ele>
        <time>2015-08-06T09:55:33.000Z</time>
      </trkpt>
      <trkpt lat="46.20136" lon="6.58554">
        <ele>1277</ele>
        <time>2015-08-06T09:55:37.000Z</time>
      </trkpt>
      <trkpt lat="46.20145" lon="6.58545">
        <ele>1277</ele>
        <time>2015-08-06T09:55:40.000Z</time>
      </trkpt>
      <trkpt lat="46.20153" lon="6.58537">
        <ele>1277</ele>
        <time>2015-08-06T09:55:43.000Z</time>
      </trkpt>
      <trkpt lat="46.20163" lon="6.58527">
        <ele>1277</ele>
        <time>2015-08-06T09:55:47.000Z</time>
      </trkpt>
      <trkpt lat="46.20172" lon="6.58515">
        <ele>1277.56122409</ele>
        <time>2015-08-06T09:55:51.000Z</time>
      </trkpt>
      <trkpt lat="46.20181" lon="6.58504">
        <ele>1278</ele>
        <time>2015-08-06T09:55:55.000Z</time>
      </trkpt>
      <trkpt lat="46.20189" lon="6.58495">
        <ele>1278</ele>
        <time>2015-08-06T09:55:58.000Z</time>
      </trkpt>
      <trkpt lat="46.20198" lon="6.58485">
        <ele>1277.4300032</ele>
        <time>2015-08-06T09:56:01.000Z</time>
      </trkpt>
      <trkpt lat="46.20206" lon="6.58476">
        <ele>1277</ele>
        <time>2015-08-06T09:56:04.000Z</time>
      </trkpt>
      <trkpt lat="46.20216" lon="6.58464">
        <ele>1277</ele>
        <time>2015-08-06T09:56:08.000Z</time>
      </trkpt>
      <trkpt lat="46.20227" lon="6.58454">
        <ele>1275</ele>
        <time>2015-08-06T09:56:12.000Z</time>
      </trkpt>
      <trkpt lat="46.20235" lon="6.58444">
        <ele>1275</ele>
        <time>2015-08-06T09:56:16.000Z</time>
      </trkpt>
      <trkpt lat="46.20244" lon="6.58438">
        <ele>1275</ele>
        <time>2015-08-06T09:56:20.000Z</time>
      </trkpt>
      <trkpt lat="46.20255" lon="6.58434">
        <ele>1273</ele>
        <time>2015-08-06T09:56:25.000Z</time>
      </trkpt>
      <trkpt lat="46.20266" lon="6.58431">
        <ele>1273</ele>
        <time>2015-08-06T09:56:30.000Z</time>
      </trkpt>
      <trkpt lat="46.20277" lon="6.58427">
        <ele>1272</ele>
        <time>2015-08-06T09:56:34.000Z</time>
      </trkpt>
      <trkpt lat="46.20287" lon="6.58421">
        <ele>1272</ele>
        <time>2015-08-06T09:56:39.000Z</time>
      </trkpt>
      <trkpt lat="46.20297" lon="6.58413">
        <ele>1272</ele>
        <time>2015-08-06T09:56:44.000Z</time>
      </trkpt>
      <trkpt lat="46.20306" lon="6.58404">
        <ele>1272</ele>
        <time>2015-08-06T09:56:47.000Z</time>
      </trkpt>
      <trkpt lat="46.20315" lon="6.58395">
        <ele>1272</ele>
        <time>2015-08-06T09:56:51.000Z</time>
      </trkpt>
      <trkpt lat="46.20325" lon="6.58384">
        <ele>1272</ele>
        <time>2015-08-06T09:56:56.000Z</time>
      </trkpt>
      <trkpt lat="46.20335" lon="6.58376">
        <ele>1272</ele>
        <time>2015-08-06T09:56:59.000Z</time>
      </trkpt>
      <trkpt lat="46.20344" lon="6.58367">
        <ele>1272</ele>
        <time>2015-08-06T09:57:02.000Z</time>
      </trkpt>
      <trkpt lat="46.20354" lon="6.58359">
        <ele>1272</ele>
        <time>2015-08-06T09:57:07.000Z</time>
      </trkpt>
      <trkpt lat="46.20365" lon="6.58355">
        <ele>1272</ele>
        <time>2015-08-06T09:57:10.000Z</time>
      </trkpt>
      <trkpt lat="46.20375" lon="6.58349">
        <ele>1270</ele>
        <time>2015-08-06T09:57:13.000Z</time>
      </trkpt>
      <trkpt lat="46.20386" lon="6.5834">
        <ele>1270</ele>
        <time>2015-08-06T09:57:16.000Z</time>
      </trkpt>
      <trkpt lat="46.20394" lon="6.58327">
        <ele>1270</ele>
        <time>2015-08-06T09:57:20.000Z</time>
      </trkpt>
      <trkpt lat="46.20393" lon="6.58312">
        <ele>1268</ele>
        <time>2015-08-06T09:57:24.000Z</time>
      </trkpt>
      <trkpt lat="46.20387" lon="6.58298">
        <ele>1268</ele>
        <time>2015-08-06T09:57:28.000Z</time>
      </trkpt>
      <trkpt lat="46.2038" lon="6.58288">
        <ele>1264</ele>
        <time>2015-08-06T09:57:32.000Z</time>
      </trkpt>
      <trkpt lat="46.2037" lon="6.58281">
        <ele>1264</ele>
        <time>2015-08-06T09:57:35.000Z</time>
      </trkpt>
      <trkpt lat="46.20359" lon="6.58272">
        <ele>1261</ele>
        <time>2015-08-06T09:57:37.000Z</time>
      </trkpt>
      <trkpt lat="46.20349" lon="6.58262">
        <ele>1261</ele>
        <time>2015-08-06T09:57:40.000Z</time>
      </trkpt>
      <trkpt lat="46.20341" lon="6.58252">
        <ele>1258</ele>
        <time>2015-08-06T09:57:43.000Z</time>
      </trkpt>
      <trkpt lat="46.20331" lon="6.58241">
        <ele>1255.4300032</ele>
        <time>2015-08-06T09:57:47.000Z</time>
      </trkpt>
      <trkpt lat="46.20323" lon="6.58229">
        <ele>1254</ele>
        <time>2015-08-06T09:57:51.000Z</time>
      </trkpt>
      <trkpt lat="46.2032" lon="6.58211">
        <ele>1254</ele>
        <time>2015-08-06T09:57:55.000Z</time>
      </trkpt>
      <trkpt lat="46.20326" lon="6.58197">
        <ele>1252</ele>
        <time>2015-08-06T09:57:57.000Z</time>
      </trkpt>
      <trkpt lat="46.20331" lon="6.58179">
        <ele>1252</ele>
        <time>2015-08-06T09:58:00.000Z</time>
      </trkpt>
      <trkpt lat="46.20337" lon="6.58163">
        <ele>1248</ele>
        <time>2015-08-06T09:58:03.000Z</time>
      </trkpt>
      <trkpt lat="46.20342" lon="6.58148">
        <ele>1246.4300032</ele>
        <time>2015-08-06T09:58:06.000Z</time>
      </trkpt>
      <trkpt lat="46.2035" lon="6.58138">
        <ele>1246</ele>
        <time>2015-08-06T09:58:09.000Z</time>
      </trkpt>
      <trkpt lat="46.2036" lon="6.58141">
        <ele>1246</ele>
        <time>2015-08-06T09:58:12.000Z</time>
      </trkpt>
      <trkpt lat="46.20371" lon="6.58154">
        <ele>1246</ele>
        <time>2015-08-06T09:58:14.000Z</time>
      </trkpt>
      <trkpt lat="46.20382" lon="6.58166">
        <ele>1244.8686905254</ele>
        <time>2015-08-06T09:58:16.000Z</time>
      </trkpt>
      <trkpt lat="46.20391" lon="6.5818">
        <ele>1244</ele>
        <time>2015-08-06T09:58:19.000Z</time>
      </trkpt>
      <trkpt lat="46.204" lon="6.58189">
        <ele>1241</ele>
        <time>2015-08-06T09:58:22.000Z</time>
      </trkpt>
      <trkpt lat="46.2041" lon="6.58188">
        <ele>1241</ele>
        <time>2015-08-06T09:58:25.000Z</time>
      </trkpt>
      <trkpt lat="46.20418" lon="6.58172">
        <ele>1238</ele>
        <time>2015-08-06T09:58:30.000Z</time>
      </trkpt>
      <trkpt lat="46.2042" lon="6.58156">
        <ele>1237</ele>
        <time>2015-08-06T09:58:33.000Z</time>
      </trkpt>
      <trkpt lat="46.20422" lon="6.58138">
        <ele>1234</ele>
        <time>2015-08-06T09:58:37.000Z</time>
      </trkpt>
      <trkpt lat="46.20427" lon="6.58124">
        <ele>1232</ele>
        <time>2015-08-06T09:58:42.000Z</time>
      </trkpt>
      <trkpt lat="46.20438" lon="6.58122">
        <ele>1232</ele>
        <time>2015-08-06T09:58:47.000Z</time>
      </trkpt>
      <trkpt lat="46.20449" lon="6.58121">
        <ele>1231.4300032</ele>
        <time>2015-08-06T09:58:51.000Z</time>
      </trkpt>
      <trkpt lat="46.20462" lon="6.5812">
        <ele>1231</ele>
        <time>2015-08-06T09:58:54.000Z</time>
      </trkpt>
      <trkpt lat="46.20474" lon="6.58121">
        <ele>1231</ele>
        <time>2015-08-06T09:58:58.000Z</time>
      </trkpt>
      <trkpt lat="46.20486" lon="6.58122">
        <ele>1228</ele>
        <time>2015-08-06T09:59:02.000Z</time>
      </trkpt>
      <trkpt lat="46.20498" lon="6.58118">
        <ele>1227</ele>
        <time>2015-08-06T09:59:07.000Z</time>
      </trkpt>
      <trkpt lat="46.20508" lon="6.58114">
        <ele>1227</ele>
        <time>2015-08-06T09:59:10.000Z</time>
      </trkpt>
      <trkpt lat="46.20521" lon="6.58112">
        <ele>1226</ele>
        <time>2015-08-06T09:59:14.000Z</time>
      </trkpt>
      <trkpt lat="46.20533" lon="6.58109">
        <ele>1226</ele>
        <time>2015-08-06T09:59:19.000Z</time>
      </trkpt>
      <trkpt lat="46.20543" lon="6.58107">
        <ele>1223</ele>
        <time>2015-08-06T09:59:23.000Z</time>
      </trkpt>
      <trkpt lat="46.20552" lon="6.581">
        <ele>1220</ele>
        <time>2015-08-06T09:59:27.000Z</time>
      </trkpt>
      <trkpt lat="46.20561" lon="6.58093">
        <ele>1220</ele>
        <time>2015-08-06T09:59:30.000Z</time>
      </trkpt>
      <trkpt lat="46.20573" lon="6.58084">
        <ele>1218</ele>
        <time>2015-08-06T09:59:33.000Z</time>
      </trkpt>
      <trkpt lat="46.20585" lon="6.58076">
        <ele>1217.4300032</ele>
        <time>2015-08-06T09:59:36.000Z</time>
      </trkpt>
      <trkpt lat="46.20596" lon="6.58067">
        <ele>1217</ele>
        <time>2015-08-06T09:59:39.000Z</time>
      </trkpt>
      <trkpt lat="46.20604" lon="6.58057">
        <ele>1215</ele>
        <time>2015-08-06T09:59:42.000Z</time>
      </trkpt>
      <trkpt lat="46.20613" lon="6.58043">
        <ele>1214.4300032</ele>
        <time>2015-08-06T09:59:46.000Z</time>
      </trkpt>
      <trkpt lat="46.20622" lon="6.5803">
        <ele>1214</ele>
        <time>2015-08-06T09:59:50.000Z</time>
      </trkpt>
      <trkpt lat="46.2063" lon="6.58017">
        <ele>1213</ele>
        <time>2015-08-06T09:59:54.000Z</time>
      </trkpt>
      <trkpt lat="46.20639" lon="6.58005">
        <ele>1212</ele>
        <time>2015-08-06T09:59:58.000Z</time>
      </trkpt>
      <trkpt lat="46.20648" lon="6.57991">
        <ele>1209</ele>
        <time>2015-08-06T10:00:02.000Z</time>
      </trkpt>
      <trkpt lat="46.20654" lon="6.57978">
        <ele>1209</ele>
        <time>2015-08-06T10:00:05.000Z</time>
      </trkpt>
      <trkpt lat="46.20662" lon="6.57962">
        <ele>1207</ele>
        <time>2015-08-06T10:00:09.000Z</time>
      </trkpt>
      <trkpt lat="46.20666" lon="6.57944">
        <ele>1204</ele>
        <time>2015-08-06T10:00:13.000Z</time>
      </trkpt>
      <trkpt lat="46.20671" lon="6.57928">
        <ele>1202</ele>
        <time>2015-08-06T10:00:17.000Z</time>
      </trkpt>
      <trkpt lat="46.20675" lon="6.57911">
        <ele>1201.4300032</ele>
        <time>2015-08-06T10:00:21.000Z</time>
      </trkpt>
      <trkpt lat="46.20678" lon="6.57897">
        <ele>1201</ele>
        <time>2015-08-06T10:00:24.000Z</time>
      </trkpt>
      <trkpt lat="46.20684" lon="6.57881">
        <ele>1200</ele>
        <time>2015-08-06T10:00:28.000Z</time>
      </trkpt>
      <trkpt lat="46.20688" lon="6.57867">
        <ele>1199</ele>
        <time>2015-08-06T10:00:32.000Z</time>
      </trkpt>
      <trkpt lat="46.20693" lon="6.57852">
        <ele>1198.4300032</ele>
        <time>2015-08-06T10:00:36.000Z</time>
      </trkpt>
      <trkpt lat="46.207" lon="6.57838">
        <ele>1198</ele>
        <time>2015-08-06T10:00:40.000Z</time>
      </trkpt>
      <trkpt lat="46.20699" lon="6.57821">
        <ele>1196</ele>
        <time>2015-08-06T10:00:44.000Z</time>
      </trkpt>
      <trkpt lat="46.20697" lon="6.57804">
        <ele>1195</ele>
        <time>2015-08-06T10:00:48.000Z</time>
      </trkpt>
      <trkpt lat="46.20701" lon="6.57787">
        <ele>1194</ele>
        <time>2015-08-06T10:00:52.000Z</time>
      </trkpt>
      <trkpt lat="46.20703" lon="6.5777">
        <ele>1194</ele>
        <time>2015-08-06T10:00:56.000Z</time>
      </trkpt>
      <trkpt lat="46.20706" lon="6.57753">
        <ele>1194</ele>
        <time>2015-08-06T10:01:00.000Z</time>
      </trkpt>
      <trkpt lat="46.20709" lon="6.57736">
        <ele>1190</ele>
        <time>2015-08-06T10:01:04.000Z</time>
      </trkpt>
      <trkpt lat="46.20712" lon="6.5772">
        <ele>1189</ele>
        <time>2015-08-06T10:01:08.000Z</time>
      </trkpt>
      <trkpt lat="46.20716" lon="6.57706">
        <ele>1187.8686905254</ele>
        <time>2015-08-06T10:01:11.000Z</time>
      </trkpt>
      <trkpt lat="46.20719" lon="6.57689">
        <ele>1187</ele>
        <time>2015-08-06T10:01:15.000Z</time>
      </trkpt>
      <trkpt lat="46.20724" lon="6.57672">
        <ele>1185</ele>
        <time>2015-08-06T10:01:19.000Z</time>
      </trkpt>
      <trkpt lat="46.2073" lon="6.57661">
        <ele>1183</ele>
        <time>2015-08-06T10:01:22.000Z</time>
      </trkpt>
      <trkpt lat="46.20741" lon="6.57651">
        <ele>1181.2900096</ele>
        <time>2015-08-06T10:01:26.000Z</time>
      </trkpt>
      <trkpt lat="46.20752" lon="6.57644">
        <ele>1180</ele>
        <time>2015-08-06T10:01:30.000Z</time>
      </trkpt>
      <trkpt lat="46.20761" lon="6.57638">
        <ele>1179</ele>
        <time>2015-08-06T10:01:33.000Z</time>
      </trkpt>
      <trkpt lat="46.20772" lon="6.5763">
        <ele>1176</ele>
        <time>2015-08-06T10:01:37.000Z</time>
      </trkpt>
      <trkpt lat="46.2078" lon="6.5762">
        <ele>1174.8600064</ele>
        <time>2015-08-06T10:01:41.000Z</time>
      </trkpt>
      <trkpt lat="46.20787" lon="6.57607">
        <ele>1174</ele>
        <time>2015-08-06T10:01:45.000Z</time>
      </trkpt>
      <trkpt lat="46.20795" lon="6.57596">
        <ele>1172</ele>
        <time>2015-08-06T10:01:49.000Z</time>
      </trkpt>
      <trkpt lat="46.20807" lon="6.57597">
        <ele>1170</ele>
        <time>2015-08-06T10:01:54.000Z</time>
      </trkpt>
      <trkpt lat="46.20811" lon="6.57613">
        <ele>1169</ele>
        <time>2015-08-06T10:01:58.000Z</time>
      </trkpt>
      <trkpt lat="46.20814" lon="6.57631">
        <ele>1166</ele>
        <time>2015-08-06T10:02:02.000Z</time>
      </trkpt>
      <trkpt lat="46.2082" lon="6.57648">
        <ele>1165.4300032</ele>
        <time>2015-08-06T10:02:06.000Z</time>
      </trkpt>
      <trkpt lat="46.20828" lon="6.57662">
        <ele>1165</ele>
        <time>2015-08-06T10:02:10.000Z</time>
      </trkpt>
      <trkpt lat="46.20836" lon="6.57671">
        <ele>1163</ele>
        <time>2015-08-06T10:02:13.000Z</time>
      </trkpt>
      <trkpt lat="46.20843" lon="6.57686">
        <ele>1161</ele>
        <time>2015-08-06T10:02:17.000Z</time>
      </trkpt>
      <trkpt lat="46.20851" lon="6.577">
        <ele>1160.4300032</ele>
        <time>2015-08-06T10:02:21.000Z</time>
      </trkpt>
      <trkpt lat="46.20862" lon="6.57707">
        <ele>1158.8600064</ele>
        <time>2015-08-06T10:02:26.000Z</time>
      </trkpt>
      <trkpt lat="46.20874" lon="6.57705">
        <ele>1158</ele>
        <time>2015-08-06T10:02:30.000Z</time>
      </trkpt>
      <trkpt lat="46.20884" lon="6.57694">
        <ele>1155</ele>
        <time>2015-08-06T10:02:34.000Z</time>
      </trkpt>
      <trkpt lat="46.20892" lon="6.57685">
        <ele>1155</ele>
        <time>2015-08-06T10:02:37.000Z</time>
      </trkpt>
      <trkpt lat="46.20894" lon="6.57682">
        <ele>1155</ele>
        <time>2015-08-06T10:02:38.000Z</time>
      </trkpt>
    </trkseg>
  </trk>
</gpx>